<?xml version="1.0" encoding="UTF-8" standalone="no" ?>
<gpx xmlns="http://www.topografix.com/GPX/1/1" xmlns:xsi="http://www.w3.org/2001/XMLSchema-instance" xsi:schemaLocation="http://www.topografix.com/GPX/1/1 http://www.topografix.com/GPX/1/1/gpx.xsd" version="1.1" creator="VisuGPX - https://www.visugpx.com">
  <metadata>
    <name>Balade découverte - Boucle de la pointe du Touquet</name>
    <desc><![CDATA[Sorite digestive jusqu'à la pointe du Touquet et son parc naturel
Sompteux]]></desc>
  </metadata>
  <trk>
    <name><![CDATA[SityTrail - Balade dans la baie de Canche]]></name>
    <desc><![CDATA[Sorite digestive jusqu'à la pointe du Touquet et son parc naturel
Sompteux]]></desc>
    <trkseg>
      <trkpt lat="50.5162" lon="1.57818">
        <ele>7</ele>
        <time>2021-08-09T16:39:05.469Z</time>
      </trkpt>
      <trkpt lat="50.51621" lon="1.57818">
        <ele>7</ele>
        <time>2021-08-09T16:39:05.642Z</time>
      </trkpt>
      <trkpt lat="50.51625" lon="1.57813">
        <ele>7</ele>
        <time>2021-08-09T16:39:09.654Z</time>
      </trkpt>
      <trkpt lat="50.51629" lon="1.57814">
        <ele>7</ele>
        <time>2021-08-09T16:39:14.655Z</time>
      </trkpt>
      <trkpt lat="50.51631" lon="1.57815">
        <ele>7</ele>
        <time>2021-08-09T16:39:19.654Z</time>
      </trkpt>
      <trkpt lat="50.51633" lon="1.57817">
        <ele>7</ele>
        <time>2021-08-09T16:39:23.664Z</time>
      </trkpt>
      <trkpt lat="50.51635" lon="1.57826">
        <ele>8</ele>
        <time>2021-08-09T16:39:28.669Z</time>
      </trkpt>
      <trkpt lat="50.51637" lon="1.57832">
        <ele>8</ele>
        <time>2021-08-09T16:39:32.664Z</time>
      </trkpt>
      <trkpt lat="50.51638" lon="1.57842">
        <ele>8</ele>
        <time>2021-08-09T16:39:37.653Z</time>
      </trkpt>
      <trkpt lat="50.51637" lon="1.5785">
        <ele>10</ele>
        <time>2021-08-09T16:39:42.647Z</time>
      </trkpt>
      <trkpt lat="50.51636" lon="1.57859">
        <ele>10</ele>
        <time>2021-08-09T16:39:46.645Z</time>
      </trkpt>
      <trkpt lat="50.51637" lon="1.57867">
        <ele>10</ele>
        <time>2021-08-09T16:39:50.658Z</time>
      </trkpt>
      <trkpt lat="50.51637" lon="1.57877">
        <ele>10</ele>
        <time>2021-08-09T16:39:55.659Z</time>
      </trkpt>
      <trkpt lat="50.51637" lon="1.57887">
        <ele>10</ele>
        <time>2021-08-09T16:40:00.651Z</time>
      </trkpt>
      <trkpt lat="50.51639" lon="1.57895">
        <ele>10</ele>
        <time>2021-08-09T16:40:05.674Z</time>
      </trkpt>
      <trkpt lat="50.51645" lon="1.57898">
        <ele>10</ele>
        <time>2021-08-09T16:40:10.648Z</time>
      </trkpt>
      <trkpt lat="50.51652" lon="1.57899">
        <ele>10</ele>
        <time>2021-08-09T16:40:15.656Z</time>
      </trkpt>
      <trkpt lat="50.51658" lon="1.57901">
        <ele>9</ele>
        <time>2021-08-09T16:40:20.651Z</time>
      </trkpt>
      <trkpt lat="50.51664" lon="1.57902">
        <ele>9</ele>
        <time>2021-08-09T16:40:25.671Z</time>
      </trkpt>
      <trkpt lat="50.5167" lon="1.57905">
        <ele>11</ele>
        <time>2021-08-09T16:40:30.659Z</time>
      </trkpt>
      <trkpt lat="50.51675" lon="1.57907">
        <ele>11</ele>
        <time>2021-08-09T16:40:35.660Z</time>
      </trkpt>
      <trkpt lat="50.51681" lon="1.57908">
        <ele>10</ele>
        <time>2021-08-09T16:40:40.655Z</time>
      </trkpt>
      <trkpt lat="50.51687" lon="1.5791">
        <ele>10</ele>
        <time>2021-08-09T16:40:45.653Z</time>
      </trkpt>
      <trkpt lat="50.51693" lon="1.57911">
        <ele>10</ele>
        <time>2021-08-09T16:40:50.664Z</time>
      </trkpt>
      <trkpt lat="50.51699" lon="1.5791">
        <ele>10</ele>
        <time>2021-08-09T16:40:55.650Z</time>
      </trkpt>
      <trkpt lat="50.51704" lon="1.57906">
        <ele>10</ele>
        <time>2021-08-09T16:40:59.661Z</time>
      </trkpt>
      <trkpt lat="50.51711" lon="1.57909">
        <ele>9</ele>
        <time>2021-08-09T16:41:04.662Z</time>
      </trkpt>
      <trkpt lat="50.51716" lon="1.5791">
        <ele>9</ele>
        <time>2021-08-09T16:41:08.671Z</time>
      </trkpt>
      <trkpt lat="50.51723" lon="1.5791">
        <ele>9</ele>
        <time>2021-08-09T16:41:13.654Z</time>
      </trkpt>
      <trkpt lat="50.51728" lon="1.57911">
        <ele>9</ele>
        <time>2021-08-09T16:41:17.670Z</time>
      </trkpt>
      <trkpt lat="50.51733" lon="1.57909">
        <ele>9</ele>
        <time>2021-08-09T16:41:22.663Z</time>
      </trkpt>
      <trkpt lat="50.51741" lon="1.57912">
        <ele>9</ele>
        <time>2021-08-09T16:41:26.662Z</time>
      </trkpt>
      <trkpt lat="50.51748" lon="1.57915">
        <ele>9</ele>
        <time>2021-08-09T16:41:31.662Z</time>
      </trkpt>
      <trkpt lat="50.51755" lon="1.57917">
        <ele>9</ele>
        <time>2021-08-09T16:41:36.658Z</time>
      </trkpt>
      <trkpt lat="50.51761" lon="1.5792">
        <ele>9</ele>
        <time>2021-08-09T16:41:41.651Z</time>
      </trkpt>
      <trkpt lat="50.51766" lon="1.57921">
        <ele>10</ele>
        <time>2021-08-09T16:41:45.656Z</time>
      </trkpt>
      <trkpt lat="50.51773" lon="1.57925">
        <ele>10</ele>
        <time>2021-08-09T16:41:50.776Z</time>
      </trkpt>
      <trkpt lat="50.51779" lon="1.57927">
        <ele>10</ele>
        <time>2021-08-09T16:41:55.647Z</time>
      </trkpt>
      <trkpt lat="50.51785" lon="1.5793">
        <ele>10</ele>
        <time>2021-08-09T16:42:00.660Z</time>
      </trkpt>
      <trkpt lat="50.51792" lon="1.57925">
        <ele>10</ele>
        <time>2021-08-09T16:42:05.662Z</time>
      </trkpt>
      <trkpt lat="50.51799" lon="1.57926">
        <ele>11</ele>
        <time>2021-08-09T16:42:10.649Z</time>
      </trkpt>
      <trkpt lat="50.51806" lon="1.57928">
        <ele>11</ele>
        <time>2021-08-09T16:42:15.662Z</time>
      </trkpt>
      <trkpt lat="50.51813" lon="1.57928">
        <ele>11</ele>
        <time>2021-08-09T16:42:20.666Z</time>
      </trkpt>
      <trkpt lat="50.51819" lon="1.57929">
        <ele>11</ele>
        <time>2021-08-09T16:42:25.656Z</time>
      </trkpt>
      <trkpt lat="50.51826" lon="1.57931">
        <ele>15</ele>
        <time>2021-08-09T16:42:30.652Z</time>
      </trkpt>
      <trkpt lat="50.51832" lon="1.57932">
        <ele>15</ele>
        <time>2021-08-09T16:42:35.657Z</time>
      </trkpt>
      <trkpt lat="50.51839" lon="1.57933">
        <ele>15</ele>
        <time>2021-08-09T16:42:40.648Z</time>
      </trkpt>
      <trkpt lat="50.51844" lon="1.57933">
        <ele>15</ele>
        <time>2021-08-09T16:42:44.664Z</time>
      </trkpt>
      <trkpt lat="50.5185" lon="1.57936">
        <ele>14</ele>
        <time>2021-08-09T16:42:49.655Z</time>
      </trkpt>
      <trkpt lat="50.51855" lon="1.57937">
        <ele>14</ele>
        <time>2021-08-09T16:42:53.657Z</time>
      </trkpt>
      <trkpt lat="50.5186" lon="1.57939">
        <ele>14</ele>
        <time>2021-08-09T16:42:57.656Z</time>
      </trkpt>
      <trkpt lat="50.51867" lon="1.5794">
        <ele>14</ele>
        <time>2021-08-09T16:43:02.660Z</time>
      </trkpt>
      <trkpt lat="50.51872" lon="1.57941">
        <ele>14</ele>
        <time>2021-08-09T16:43:06.657Z</time>
      </trkpt>
      <trkpt lat="50.51877" lon="1.5794">
        <ele>12</ele>
        <time>2021-08-09T16:43:10.656Z</time>
      </trkpt>
      <trkpt lat="50.51884" lon="1.57942">
        <ele>12</ele>
        <time>2021-08-09T16:43:15.658Z</time>
      </trkpt>
      <trkpt lat="50.51891" lon="1.57943">
        <ele>12</ele>
        <time>2021-08-09T16:43:20.659Z</time>
      </trkpt>
      <trkpt lat="50.51898" lon="1.57943">
        <ele>12</ele>
        <time>2021-08-09T16:43:25.665Z</time>
      </trkpt>
      <trkpt lat="50.51904" lon="1.57944">
        <ele>11</ele>
        <time>2021-08-09T16:43:30.761Z</time>
      </trkpt>
      <trkpt lat="50.5191" lon="1.57944">
        <ele>11</ele>
        <time>2021-08-09T16:43:35.671Z</time>
      </trkpt>
      <trkpt lat="50.51916" lon="1.57946">
        <ele>11</ele>
        <time>2021-08-09T16:43:40.660Z</time>
      </trkpt>
      <trkpt lat="50.51922" lon="1.57947">
        <ele>11</ele>
        <time>2021-08-09T16:43:45.651Z</time>
      </trkpt>
      <trkpt lat="50.51925" lon="1.57948">
        <ele>11</ele>
        <time>2021-08-09T16:43:50.659Z</time>
      </trkpt>
      <trkpt lat="50.51932" lon="1.57949">
        <ele>10</ele>
        <time>2021-08-09T16:43:55.658Z</time>
      </trkpt>
      <trkpt lat="50.51938" lon="1.57949">
        <ele>10</ele>
        <time>2021-08-09T16:44:00.658Z</time>
      </trkpt>
      <trkpt lat="50.51944" lon="1.5795">
        <ele>10</ele>
        <time>2021-08-09T16:44:05.654Z</time>
      </trkpt>
      <trkpt lat="50.51951" lon="1.57951">
        <ele>10</ele>
        <time>2021-08-09T16:44:10.673Z</time>
      </trkpt>
      <trkpt lat="50.51957" lon="1.57953">
        <ele>10</ele>
        <time>2021-08-09T16:44:15.655Z</time>
      </trkpt>
      <trkpt lat="50.51963" lon="1.57955">
        <ele>9</ele>
        <time>2021-08-09T16:44:19.660Z</time>
      </trkpt>
      <trkpt lat="50.51968" lon="1.57956">
        <ele>9</ele>
        <time>2021-08-09T16:44:23.675Z</time>
      </trkpt>
      <trkpt lat="50.51975" lon="1.57956">
        <ele>9</ele>
        <time>2021-08-09T16:44:28.655Z</time>
      </trkpt>
      <trkpt lat="50.51982" lon="1.57956">
        <ele>9</ele>
        <time>2021-08-09T16:44:33.657Z</time>
      </trkpt>
      <trkpt lat="50.51989" lon="1.57958">
        <ele>9</ele>
        <time>2021-08-09T16:44:38.653Z</time>
      </trkpt>
      <trkpt lat="50.51994" lon="1.57959">
        <ele>12</ele>
        <time>2021-08-09T16:44:42.656Z</time>
      </trkpt>
      <trkpt lat="50.52001" lon="1.57961">
        <ele>12</ele>
        <time>2021-08-09T16:44:47.682Z</time>
      </trkpt>
      <trkpt lat="50.52006" lon="1.57965">
        <ele>12</ele>
        <time>2021-08-09T16:44:52.674Z</time>
      </trkpt>
      <trkpt lat="50.5201" lon="1.5797">
        <ele>12</ele>
        <time>2021-08-09T16:44:56.680Z</time>
      </trkpt>
      <trkpt lat="50.52013" lon="1.57978">
        <ele>12</ele>
        <time>2021-08-09T16:45:01.669Z</time>
      </trkpt>
      <trkpt lat="50.52016" lon="1.57987">
        <ele>13</ele>
        <time>2021-08-09T16:45:06.666Z</time>
      </trkpt>
      <trkpt lat="50.52018" lon="1.57988">
        <ele>13</ele>
        <time>2021-08-09T16:45:11.659Z</time>
      </trkpt>
      <trkpt lat="50.5202" lon="1.57997">
        <ele>13</ele>
        <time>2021-08-09T16:45:16.661Z</time>
      </trkpt>
      <trkpt lat="50.52022" lon="1.58006">
        <ele>13</ele>
        <time>2021-08-09T16:45:20.661Z</time>
      </trkpt>
      <trkpt lat="50.52025" lon="1.58017">
        <ele>14</ele>
        <time>2021-08-09T16:45:25.666Z</time>
      </trkpt>
      <trkpt lat="50.52032" lon="1.58019">
        <ele>14</ele>
        <time>2021-08-09T16:45:30.667Z</time>
      </trkpt>
      <trkpt lat="50.52037" lon="1.5802">
        <ele>14</ele>
        <time>2021-08-09T16:45:35.649Z</time>
      </trkpt>
      <trkpt lat="50.52041" lon="1.58022">
        <ele>14</ele>
        <time>2021-08-09T16:45:39.653Z</time>
      </trkpt>
      <trkpt lat="50.52047" lon="1.58024">
        <ele>13</ele>
        <time>2021-08-09T16:45:44.670Z</time>
      </trkpt>
      <trkpt lat="50.52053" lon="1.58026">
        <ele>13</ele>
        <time>2021-08-09T16:45:49.657Z</time>
      </trkpt>
      <trkpt lat="50.52057" lon="1.58028">
        <ele>13</ele>
        <time>2021-08-09T16:45:53.658Z</time>
      </trkpt>
      <trkpt lat="50.52061" lon="1.5803">
        <ele>13</ele>
        <time>2021-08-09T16:45:57.674Z</time>
      </trkpt>
      <trkpt lat="50.52067" lon="1.58035">
        <ele>13</ele>
        <time>2021-08-09T16:46:02.661Z</time>
      </trkpt>
      <trkpt lat="50.52074" lon="1.58041">
        <ele>12</ele>
        <time>2021-08-09T16:46:06.659Z</time>
      </trkpt>
      <trkpt lat="50.52081" lon="1.58042">
        <ele>15</ele>
        <time>2021-08-09T16:46:11.656Z</time>
      </trkpt>
      <trkpt lat="50.52088" lon="1.58044">
        <ele>15</ele>
        <time>2021-08-09T16:46:16.658Z</time>
      </trkpt>
      <trkpt lat="50.52095" lon="1.58044">
        <ele>15</ele>
        <time>2021-08-09T16:46:21.665Z</time>
      </trkpt>
      <trkpt lat="50.52101" lon="1.58043">
        <ele>15</ele>
        <time>2021-08-09T16:46:26.666Z</time>
      </trkpt>
      <trkpt lat="50.52107" lon="1.58043">
        <ele>15</ele>
        <time>2021-08-09T16:46:31.655Z</time>
      </trkpt>
      <trkpt lat="50.52112" lon="1.58043">
        <ele>15</ele>
        <time>2021-08-09T16:46:35.664Z</time>
      </trkpt>
      <trkpt lat="50.52118" lon="1.58045">
        <ele>15</ele>
        <time>2021-08-09T16:46:40.665Z</time>
      </trkpt>
      <trkpt lat="50.52124" lon="1.58046">
        <ele>15</ele>
        <time>2021-08-09T16:46:45.655Z</time>
      </trkpt>
      <trkpt lat="50.52131" lon="1.58047">
        <ele>14</ele>
        <time>2021-08-09T16:46:50.663Z</time>
      </trkpt>
      <trkpt lat="50.52137" lon="1.58048">
        <ele>14</ele>
        <time>2021-08-09T16:46:55.656Z</time>
      </trkpt>
      <trkpt lat="50.52142" lon="1.5805">
        <ele>14</ele>
        <time>2021-08-09T16:46:59.656Z</time>
      </trkpt>
      <trkpt lat="50.52147" lon="1.58051">
        <ele>14</ele>
        <time>2021-08-09T16:47:03.660Z</time>
      </trkpt>
      <trkpt lat="50.52153" lon="1.58057">
        <ele>15</ele>
        <time>2021-08-09T16:47:08.653Z</time>
      </trkpt>
      <trkpt lat="50.52154" lon="1.58066">
        <ele>15</ele>
        <time>2021-08-09T16:47:13.667Z</time>
      </trkpt>
      <trkpt lat="50.52154" lon="1.58076">
        <ele>16</ele>
        <time>2021-08-09T16:47:18.664Z</time>
      </trkpt>
      <trkpt lat="50.52154" lon="1.58086">
        <ele>16</ele>
        <time>2021-08-09T16:47:23.655Z</time>
      </trkpt>
      <trkpt lat="50.52153" lon="1.58096">
        <ele>16</ele>
        <time>2021-08-09T16:47:28.662Z</time>
      </trkpt>
      <trkpt lat="50.52152" lon="1.58103">
        <ele>17</ele>
        <time>2021-08-09T16:47:32.665Z</time>
      </trkpt>
      <trkpt lat="50.52152" lon="1.58115">
        <ele>17</ele>
        <time>2021-08-09T16:47:37.652Z</time>
      </trkpt>
      <trkpt lat="50.52153" lon="1.58124">
        <ele>17</ele>
        <time>2021-08-09T16:47:42.679Z</time>
      </trkpt>
      <trkpt lat="50.52155" lon="1.58134">
        <ele>18</ele>
        <time>2021-08-09T16:47:47.675Z</time>
      </trkpt>
      <trkpt lat="50.52157" lon="1.58141">
        <ele>18</ele>
        <time>2021-08-09T16:47:51.679Z</time>
      </trkpt>
      <trkpt lat="50.52162" lon="1.58147">
        <ele>18</ele>
        <time>2021-08-09T16:47:56.676Z</time>
      </trkpt>
      <trkpt lat="50.52168" lon="1.5815">
        <ele>18</ele>
        <time>2021-08-09T16:48:01.662Z</time>
      </trkpt>
      <trkpt lat="50.52172" lon="1.58152">
        <ele>18</ele>
        <time>2021-08-09T16:48:05.669Z</time>
      </trkpt>
      <trkpt lat="50.52178" lon="1.58157">
        <ele>18</ele>
        <time>2021-08-09T16:48:10.658Z</time>
      </trkpt>
      <trkpt lat="50.52183" lon="1.58161">
        <ele>18</ele>
        <time>2021-08-09T16:48:15.673Z</time>
      </trkpt>
      <trkpt lat="50.52188" lon="1.58167">
        <ele>18</ele>
        <time>2021-08-09T16:48:20.765Z</time>
      </trkpt>
      <trkpt lat="50.52194" lon="1.58169">
        <ele>18</ele>
        <time>2021-08-09T16:48:25.652Z</time>
      </trkpt>
      <trkpt lat="50.52201" lon="1.58171">
        <ele>18</ele>
        <time>2021-08-09T16:48:30.649Z</time>
      </trkpt>
      <trkpt lat="50.52207" lon="1.58175">
        <ele>18</ele>
        <time>2021-08-09T16:48:35.652Z</time>
      </trkpt>
      <trkpt lat="50.52212" lon="1.58179">
        <ele>17</ele>
        <time>2021-08-09T16:48:39.656Z</time>
      </trkpt>
      <trkpt lat="50.52217" lon="1.58181">
        <ele>17</ele>
        <time>2021-08-09T16:48:43.657Z</time>
      </trkpt>
      <trkpt lat="50.52222" lon="1.58183">
        <ele>17</ele>
        <time>2021-08-09T16:48:47.664Z</time>
      </trkpt>
      <trkpt lat="50.5223" lon="1.58186">
        <ele>17</ele>
        <time>2021-08-09T16:48:52.650Z</time>
      </trkpt>
      <trkpt lat="50.52235" lon="1.5819">
        <ele>17</ele>
        <time>2021-08-09T16:48:56.677Z</time>
      </trkpt>
      <trkpt lat="50.52241" lon="1.58192">
        <ele>16</ele>
        <time>2021-08-09T16:49:01.660Z</time>
      </trkpt>
      <trkpt lat="50.52248" lon="1.58195">
        <ele>16</ele>
        <time>2021-08-09T16:49:06.655Z</time>
      </trkpt>
      <trkpt lat="50.52253" lon="1.58196">
        <ele>16</ele>
        <time>2021-08-09T16:49:10.653Z</time>
      </trkpt>
      <trkpt lat="50.52259" lon="1.58197">
        <ele>16</ele>
        <time>2021-08-09T16:49:15.656Z</time>
      </trkpt>
      <trkpt lat="50.52266" lon="1.582">
        <ele>16</ele>
        <time>2021-08-09T16:49:20.663Z</time>
      </trkpt>
      <trkpt lat="50.52272" lon="1.58203">
        <ele>16</ele>
        <time>2021-08-09T16:49:25.674Z</time>
      </trkpt>
      <trkpt lat="50.52278" lon="1.58208">
        <ele>16</ele>
        <time>2021-08-09T16:49:30.661Z</time>
      </trkpt>
      <trkpt lat="50.52285" lon="1.5821">
        <ele>15</ele>
        <time>2021-08-09T16:49:35.667Z</time>
      </trkpt>
      <trkpt lat="50.52292" lon="1.58213">
        <ele>17</ele>
        <time>2021-08-09T16:49:40.673Z</time>
      </trkpt>
      <trkpt lat="50.52298" lon="1.5822">
        <ele>17</ele>
        <time>2021-08-09T16:49:45.653Z</time>
      </trkpt>
      <trkpt lat="50.52303" lon="1.58223">
        <ele>17</ele>
        <time>2021-08-09T16:49:50.651Z</time>
      </trkpt>
      <trkpt lat="50.52308" lon="1.58226">
        <ele>17</ele>
        <time>2021-08-09T16:49:54.664Z</time>
      </trkpt>
      <trkpt lat="50.52313" lon="1.58228">
        <ele>17</ele>
        <time>2021-08-09T16:49:58.671Z</time>
      </trkpt>
      <trkpt lat="50.52319" lon="1.58228">
        <ele>17</ele>
        <time>2021-08-09T16:50:02.677Z</time>
      </trkpt>
      <trkpt lat="50.52325" lon="1.58234">
        <ele>18</ele>
        <time>2021-08-09T16:50:07.661Z</time>
      </trkpt>
      <trkpt lat="50.5233" lon="1.58238">
        <ele>17</ele>
        <time>2021-08-09T16:50:11.687Z</time>
      </trkpt>
      <trkpt lat="50.52336" lon="1.58242">
        <ele>17</ele>
        <time>2021-08-09T16:50:16.666Z</time>
      </trkpt>
      <trkpt lat="50.52341" lon="1.58244">
        <ele>17</ele>
        <time>2021-08-09T16:50:20.675Z</time>
      </trkpt>
      <trkpt lat="50.52347" lon="1.58247">
        <ele>17</ele>
        <time>2021-08-09T16:50:25.660Z</time>
      </trkpt>
      <trkpt lat="50.52352" lon="1.58253">
        <ele>17</ele>
        <time>2021-08-09T16:50:29.670Z</time>
      </trkpt>
      <trkpt lat="50.52358" lon="1.58256">
        <ele>17</ele>
        <time>2021-08-09T16:50:34.660Z</time>
      </trkpt>
      <trkpt lat="50.52363" lon="1.58261">
        <ele>17</ele>
        <time>2021-08-09T16:50:38.675Z</time>
      </trkpt>
      <trkpt lat="50.52368" lon="1.58265">
        <ele>16</ele>
        <time>2021-08-09T16:50:43.666Z</time>
      </trkpt>
      <trkpt lat="50.52373" lon="1.58271">
        <ele>16</ele>
        <time>2021-08-09T16:50:47.679Z</time>
      </trkpt>
      <trkpt lat="50.52379" lon="1.58274">
        <ele>15</ele>
        <time>2021-08-09T16:50:52.657Z</time>
      </trkpt>
      <trkpt lat="50.52383" lon="1.58276">
        <ele>15</ele>
        <time>2021-08-09T16:50:56.657Z</time>
      </trkpt>
      <trkpt lat="50.52389" lon="1.58281">
        <ele>15</ele>
        <time>2021-08-09T16:51:01.667Z</time>
      </trkpt>
      <trkpt lat="50.52394" lon="1.58284">
        <ele>15</ele>
        <time>2021-08-09T16:51:05.670Z</time>
      </trkpt>
      <trkpt lat="50.52399" lon="1.58289">
        <ele>15</ele>
        <time>2021-08-09T16:51:10.657Z</time>
      </trkpt>
      <trkpt lat="50.52405" lon="1.58293">
        <ele>15</ele>
        <time>2021-08-09T16:51:15.662Z</time>
      </trkpt>
      <trkpt lat="50.52409" lon="1.58296">
        <ele>15</ele>
        <time>2021-08-09T16:51:19.675Z</time>
      </trkpt>
      <trkpt lat="50.52413" lon="1.58299">
        <ele>15</ele>
        <time>2021-08-09T16:51:23.676Z</time>
      </trkpt>
      <trkpt lat="50.52418" lon="1.58305">
        <ele>15</ele>
        <time>2021-08-09T16:51:28.663Z</time>
      </trkpt>
      <trkpt lat="50.52424" lon="1.5831">
        <ele>15</ele>
        <time>2021-08-09T16:51:33.663Z</time>
      </trkpt>
      <trkpt lat="50.52428" lon="1.58314">
        <ele>15</ele>
        <time>2021-08-09T16:51:37.676Z</time>
      </trkpt>
      <trkpt lat="50.52435" lon="1.58322">
        <ele>16</ele>
        <time>2021-08-09T16:51:42.662Z</time>
      </trkpt>
      <trkpt lat="50.5244" lon="1.58327">
        <ele>16</ele>
        <time>2021-08-09T16:51:46.653Z</time>
      </trkpt>
      <trkpt lat="50.52442" lon="1.58336">
        <ele>16</ele>
        <time>2021-08-09T16:51:51.657Z</time>
      </trkpt>
      <trkpt lat="50.52441" lon="1.58344">
        <ele>16</ele>
        <time>2021-08-09T16:51:56.662Z</time>
      </trkpt>
      <trkpt lat="50.52438" lon="1.5835">
        <ele>15</ele>
        <time>2021-08-09T16:52:00.665Z</time>
      </trkpt>
      <trkpt lat="50.52436" lon="1.58357">
        <ele>15</ele>
        <time>2021-08-09T16:52:05.658Z</time>
      </trkpt>
      <trkpt lat="50.52433" lon="1.58363">
        <ele>15</ele>
        <time>2021-08-09T16:52:09.675Z</time>
      </trkpt>
      <trkpt lat="50.52429" lon="1.58372">
        <ele>15</ele>
        <time>2021-08-09T16:52:14.663Z</time>
      </trkpt>
      <trkpt lat="50.52426" lon="1.58381">
        <ele>16</ele>
        <time>2021-08-09T16:52:19.668Z</time>
      </trkpt>
      <trkpt lat="50.52423" lon="1.5839">
        <ele>16</ele>
        <time>2021-08-09T16:52:24.656Z</time>
      </trkpt>
      <trkpt lat="50.5242" lon="1.58396">
        <ele>16</ele>
        <time>2021-08-09T16:52:28.661Z</time>
      </trkpt>
      <trkpt lat="50.52416" lon="1.58404">
        <ele>15</ele>
        <time>2021-08-09T16:52:33.652Z</time>
      </trkpt>
      <trkpt lat="50.52414" lon="1.58413">
        <ele>15</ele>
        <time>2021-08-09T16:52:37.657Z</time>
      </trkpt>
      <trkpt lat="50.52413" lon="1.5842">
        <ele>15</ele>
        <time>2021-08-09T16:52:41.649Z</time>
      </trkpt>
      <trkpt lat="50.52412" lon="1.5843">
        <ele>15</ele>
        <time>2021-08-09T16:52:46.659Z</time>
      </trkpt>
      <trkpt lat="50.52409" lon="1.58439">
        <ele>14</ele>
        <time>2021-08-09T16:52:51.672Z</time>
      </trkpt>
      <trkpt lat="50.52406" lon="1.58449">
        <ele>14</ele>
        <time>2021-08-09T16:52:56.675Z</time>
      </trkpt>
      <trkpt lat="50.52407" lon="1.58459">
        <ele>14</ele>
        <time>2021-08-09T16:53:01.669Z</time>
      </trkpt>
      <trkpt lat="50.52402" lon="1.58467">
        <ele>14</ele>
        <time>2021-08-09T16:53:06.669Z</time>
      </trkpt>
      <trkpt lat="50.52398" lon="1.58473">
        <ele>14</ele>
        <time>2021-08-09T16:53:11.664Z</time>
      </trkpt>
      <trkpt lat="50.52394" lon="1.5848">
        <ele>14</ele>
        <time>2021-08-09T16:53:16.667Z</time>
      </trkpt>
      <trkpt lat="50.52391" lon="1.58488">
        <ele>15</ele>
        <time>2021-08-09T16:53:21.670Z</time>
      </trkpt>
      <trkpt lat="50.52388" lon="1.58497">
        <ele>15</ele>
        <time>2021-08-09T16:53:26.665Z</time>
      </trkpt>
      <trkpt lat="50.52385" lon="1.58506">
        <ele>15</ele>
        <time>2021-08-09T16:53:31.661Z</time>
      </trkpt>
      <trkpt lat="50.5238" lon="1.58516">
        <ele>15</ele>
        <time>2021-08-09T16:53:36.656Z</time>
      </trkpt>
      <trkpt lat="50.52376" lon="1.58522">
        <ele>15</ele>
        <time>2021-08-09T16:53:40.661Z</time>
      </trkpt>
      <trkpt lat="50.52371" lon="1.58527">
        <ele>15</ele>
        <time>2021-08-09T16:53:45.667Z</time>
      </trkpt>
      <trkpt lat="50.52367" lon="1.58537">
        <ele>15</ele>
        <time>2021-08-09T16:53:50.685Z</time>
      </trkpt>
      <trkpt lat="50.52363" lon="1.58545">
        <ele>15</ele>
        <time>2021-08-09T16:53:55.663Z</time>
      </trkpt>
      <trkpt lat="50.52359" lon="1.58554">
        <ele>15</ele>
        <time>2021-08-09T16:54:00.668Z</time>
      </trkpt>
      <trkpt lat="50.52356" lon="1.58563">
        <ele>15</ele>
        <time>2021-08-09T16:54:05.667Z</time>
      </trkpt>
      <trkpt lat="50.52355" lon="1.58572">
        <ele>15</ele>
        <time>2021-08-09T16:54:09.672Z</time>
      </trkpt>
      <trkpt lat="50.52353" lon="1.5858">
        <ele>15</ele>
        <time>2021-08-09T16:54:13.668Z</time>
      </trkpt>
      <trkpt lat="50.52356" lon="1.5859">
        <ele>15</ele>
        <time>2021-08-09T16:54:18.666Z</time>
      </trkpt>
      <trkpt lat="50.52359" lon="1.58596">
        <ele>15</ele>
        <time>2021-08-09T16:54:22.671Z</time>
      </trkpt>
      <trkpt lat="50.52369" lon="1.58604">
        <ele>14</ele>
        <time>2021-08-09T16:57:09.672Z</time>
      </trkpt>
      <trkpt lat="50.52369" lon="1.58607">
        <ele>14</ele>
        <time>2021-08-09T16:57:14.662Z</time>
      </trkpt>
      <trkpt lat="50.52368" lon="1.58608">
        <ele>14</ele>
        <time>2021-08-09T16:57:19.669Z</time>
      </trkpt>
      <trkpt lat="50.52368" lon="1.58608">
        <ele>14</ele>
        <time>2021-08-09T16:57:23.663Z</time>
      </trkpt>
      <trkpt lat="50.52368" lon="1.58609">
        <ele>14</ele>
        <time>2021-08-09T16:57:28.656Z</time>
      </trkpt>
      <trkpt lat="50.52371" lon="1.58605">
        <ele>14</ele>
        <time>2021-08-09T16:57:46.663Z</time>
      </trkpt>
      <trkpt lat="50.52367" lon="1.5861">
        <ele>14</ele>
        <time>2021-08-09T16:57:50.670Z</time>
      </trkpt>
      <trkpt lat="50.52363" lon="1.58613">
        <ele>14</ele>
        <time>2021-08-09T16:57:55.661Z</time>
      </trkpt>
      <trkpt lat="50.5236" lon="1.58613">
        <ele>14</ele>
        <time>2021-08-09T16:57:59.675Z</time>
      </trkpt>
      <trkpt lat="50.52355" lon="1.58605">
        <ele>14</ele>
        <time>2021-08-09T16:58:04.667Z</time>
      </trkpt>
      <trkpt lat="50.52355" lon="1.58604">
        <ele>14</ele>
        <time>2021-08-09T16:58:08.663Z</time>
      </trkpt>
      <trkpt lat="50.52355" lon="1.58603">
        <ele>14</ele>
        <time>2021-08-09T16:58:13.657Z</time>
      </trkpt>
      <trkpt lat="50.52356" lon="1.586">
        <ele>14</ele>
        <time>2021-08-09T16:58:17.667Z</time>
      </trkpt>
      <trkpt lat="50.52359" lon="1.58595">
        <ele>15</ele>
        <time>2021-08-09T16:58:21.667Z</time>
      </trkpt>
      <trkpt lat="50.52361" lon="1.58588">
        <ele>15</ele>
        <time>2021-08-09T16:58:26.661Z</time>
      </trkpt>
      <trkpt lat="50.52364" lon="1.58581">
        <ele>15</ele>
        <time>2021-08-09T16:58:31.665Z</time>
      </trkpt>
      <trkpt lat="50.52367" lon="1.58573">
        <ele>15</ele>
        <time>2021-08-09T16:58:36.659Z</time>
      </trkpt>
      <trkpt lat="50.52368" lon="1.58565">
        <ele>15</ele>
        <time>2021-08-09T16:58:41.663Z</time>
      </trkpt>
      <trkpt lat="50.5237" lon="1.58559">
        <ele>15</ele>
        <time>2021-08-09T16:58:45.665Z</time>
      </trkpt>
      <trkpt lat="50.52373" lon="1.58551">
        <ele>15</ele>
        <time>2021-08-09T16:58:50.652Z</time>
      </trkpt>
      <trkpt lat="50.52376" lon="1.58541">
        <ele>15</ele>
        <time>2021-08-09T16:58:55.652Z</time>
      </trkpt>
      <trkpt lat="50.52376" lon="1.58534">
        <ele>15</ele>
        <time>2021-08-09T16:58:59.662Z</time>
      </trkpt>
      <trkpt lat="50.52372" lon="1.58528">
        <ele>15</ele>
        <time>2021-08-09T16:59:04.653Z</time>
      </trkpt>
      <trkpt lat="50.52367" lon="1.58524">
        <ele>15</ele>
        <time>2021-08-09T16:59:08.664Z</time>
      </trkpt>
      <trkpt lat="50.52363" lon="1.58521">
        <ele>15</ele>
        <time>2021-08-09T16:59:12.679Z</time>
      </trkpt>
      <trkpt lat="50.52358" lon="1.58518">
        <ele>15</ele>
        <time>2021-08-09T16:59:17.674Z</time>
      </trkpt>
      <trkpt lat="50.52354" lon="1.58514">
        <ele>15</ele>
        <time>2021-08-09T16:59:22.658Z</time>
      </trkpt>
      <trkpt lat="50.52354" lon="1.58515">
        <ele>15</ele>
        <time>2021-08-09T16:59:26.671Z</time>
      </trkpt>
      <trkpt lat="50.52351" lon="1.58524">
        <ele>15</ele>
        <time>2021-08-09T16:59:31.654Z</time>
      </trkpt>
      <trkpt lat="50.52349" lon="1.58529">
        <ele>15</ele>
        <time>2021-08-09T16:59:35.670Z</time>
      </trkpt>
      <trkpt lat="50.52348" lon="1.58533">
        <ele>15</ele>
        <time>2021-08-09T16:59:40.661Z</time>
      </trkpt>
      <trkpt lat="50.52347" lon="1.5852">
        <ele>15</ele>
        <time>2021-08-09T17:18:06.658Z</time>
      </trkpt>
      <trkpt lat="50.52482" lon="1.58623">
        <ele>13</ele>
        <time>2021-08-09T18:42:07.644Z</time>
      </trkpt>
      <trkpt lat="50.52487" lon="1.58626">
        <ele>13</ele>
        <time>2021-08-09T18:42:12.642Z</time>
      </trkpt>
      <trkpt lat="50.52492" lon="1.58629">
        <ele>13</ele>
        <time>2021-08-09T18:42:16.646Z</time>
      </trkpt>
      <trkpt lat="50.52496" lon="1.58632">
        <ele>13</ele>
        <time>2021-08-09T18:42:21.643Z</time>
      </trkpt>
      <trkpt lat="50.525" lon="1.58632">
        <ele>13</ele>
        <time>2021-08-09T18:42:25.649Z</time>
      </trkpt>
      <trkpt lat="50.52504" lon="1.58633">
        <ele>13</ele>
        <time>2021-08-09T18:42:30.652Z</time>
      </trkpt>
      <trkpt lat="50.52509" lon="1.58636">
        <ele>13</ele>
        <time>2021-08-09T18:42:35.645Z</time>
      </trkpt>
      <trkpt lat="50.52513" lon="1.58639">
        <ele>13</ele>
        <time>2021-08-09T18:42:39.649Z</time>
      </trkpt>
      <trkpt lat="50.52518" lon="1.58645">
        <ele>12</ele>
        <time>2021-08-09T18:42:44.655Z</time>
      </trkpt>
      <trkpt lat="50.52524" lon="1.58653">
        <ele>12</ele>
        <time>2021-08-09T18:42:49.642Z</time>
      </trkpt>
      <trkpt lat="50.52528" lon="1.58658">
        <ele>12</ele>
        <time>2021-08-09T18:42:54.645Z</time>
      </trkpt>
      <trkpt lat="50.52532" lon="1.58664">
        <ele>12</ele>
        <time>2021-08-09T18:42:59.644Z</time>
      </trkpt>
      <trkpt lat="50.52538" lon="1.58668">
        <ele>12</ele>
        <time>2021-08-09T18:43:04.646Z</time>
      </trkpt>
      <trkpt lat="50.52543" lon="1.58673">
        <ele>11</ele>
        <time>2021-08-09T18:43:09.644Z</time>
      </trkpt>
      <trkpt lat="50.52548" lon="1.58677">
        <ele>11</ele>
        <time>2021-08-09T18:43:14.648Z</time>
      </trkpt>
      <trkpt lat="50.52552" lon="1.58683">
        <ele>12</ele>
        <time>2021-08-09T18:43:19.648Z</time>
      </trkpt>
      <trkpt lat="50.52557" lon="1.58687">
        <ele>12</ele>
        <time>2021-08-09T18:43:24.643Z</time>
      </trkpt>
      <trkpt lat="50.52563" lon="1.58693">
        <ele>12</ele>
        <time>2021-08-09T18:43:29.641Z</time>
      </trkpt>
      <trkpt lat="50.52567" lon="1.58697">
        <ele>12</ele>
        <time>2021-08-09T18:43:34.648Z</time>
      </trkpt>
      <trkpt lat="50.52571" lon="1.58704">
        <ele>11</ele>
        <time>2021-08-09T18:43:39.655Z</time>
      </trkpt>
      <trkpt lat="50.52575" lon="1.58709">
        <ele>10</ele>
        <time>2021-08-09T18:43:44.643Z</time>
      </trkpt>
      <trkpt lat="50.52578" lon="1.58713">
        <ele>10</ele>
        <time>2021-08-09T18:43:48.656Z</time>
      </trkpt>
      <trkpt lat="50.52582" lon="1.58719">
        <ele>10</ele>
        <time>2021-08-09T18:43:53.650Z</time>
      </trkpt>
      <trkpt lat="50.52585" lon="1.58725">
        <ele>10</ele>
        <time>2021-08-09T18:43:58.651Z</time>
      </trkpt>
      <trkpt lat="50.52588" lon="1.58728">
        <ele>10</ele>
        <time>2021-08-09T18:44:02.654Z</time>
      </trkpt>
      <trkpt lat="50.52591" lon="1.58731">
        <ele>10</ele>
        <time>2021-08-09T18:44:07.639Z</time>
      </trkpt>
      <trkpt lat="50.52595" lon="1.58737">
        <ele>11</ele>
        <time>2021-08-09T18:44:11.648Z</time>
      </trkpt>
      <trkpt lat="50.52596" lon="1.58741">
        <ele>11</ele>
        <time>2021-08-09T18:44:15.654Z</time>
      </trkpt>
      <trkpt lat="50.52598" lon="1.58746">
        <ele>10</ele>
        <time>2021-08-09T18:44:19.650Z</time>
      </trkpt>
      <trkpt lat="50.52596" lon="1.58744">
        <ele>11</ele>
        <time>2021-08-09T18:44:24.649Z</time>
      </trkpt>
      <trkpt lat="50.526" lon="1.58747">
        <ele>10</ele>
        <time>2021-08-09T18:44:28.661Z</time>
      </trkpt>
      <trkpt lat="50.52603" lon="1.58755">
        <ele>10</ele>
        <time>2021-08-09T18:44:33.639Z</time>
      </trkpt>
      <trkpt lat="50.52607" lon="1.5876">
        <ele>10</ele>
        <time>2021-08-09T18:44:38.652Z</time>
      </trkpt>
      <trkpt lat="50.52613" lon="1.5877">
        <ele>10</ele>
        <time>2021-08-09T18:44:52.641Z</time>
      </trkpt>
      <trkpt lat="50.52613" lon="1.58772">
        <ele>10</ele>
        <time>2021-08-09T18:44:57.662Z</time>
      </trkpt>
      <trkpt lat="50.52617" lon="1.58779">
        <ele>10</ele>
        <time>2021-08-09T18:45:02.649Z</time>
      </trkpt>
      <trkpt lat="50.52621" lon="1.58784">
        <ele>10</ele>
        <time>2021-08-09T18:45:06.647Z</time>
      </trkpt>
      <trkpt lat="50.52623" lon="1.58786">
        <ele>10</ele>
        <time>2021-08-09T18:45:11.659Z</time>
      </trkpt>
      <trkpt lat="50.52623" lon="1.58786">
        <ele>10</ele>
        <time>2021-08-09T18:45:15.686Z</time>
      </trkpt>
      <trkpt lat="50.52624" lon="1.58787">
        <ele>10</ele>
        <time>2021-08-09T18:45:20.649Z</time>
      </trkpt>
      <trkpt lat="50.52628" lon="1.58791">
        <ele>10</ele>
        <time>2021-08-09T18:45:24.664Z</time>
      </trkpt>
      <trkpt lat="50.52634" lon="1.58797">
        <ele>9</ele>
        <time>2021-08-09T18:45:29.644Z</time>
      </trkpt>
      <trkpt lat="50.52639" lon="1.58801">
        <ele>9</ele>
        <time>2021-08-09T18:45:33.644Z</time>
      </trkpt>
      <trkpt lat="50.5264" lon="1.58804">
        <ele>9</ele>
        <time>2021-08-09T18:45:38.638Z</time>
      </trkpt>
      <trkpt lat="50.52644" lon="1.58807">
        <ele>9</ele>
        <time>2021-08-09T18:45:42.644Z</time>
      </trkpt>
      <trkpt lat="50.5265" lon="1.58809">
        <ele>9</ele>
        <time>2021-08-09T18:45:47.639Z</time>
      </trkpt>
      <trkpt lat="50.52655" lon="1.58808">
        <ele>9</ele>
        <time>2021-08-09T18:45:51.643Z</time>
      </trkpt>
      <trkpt lat="50.52661" lon="1.58809">
        <ele>9</ele>
        <time>2021-08-09T18:45:56.649Z</time>
      </trkpt>
      <trkpt lat="50.52669" lon="1.5881">
        <ele>9</ele>
        <time>2021-08-09T18:46:01.651Z</time>
      </trkpt>
      <trkpt lat="50.52676" lon="1.58811">
        <ele>9</ele>
        <time>2021-08-09T18:46:05.678Z</time>
      </trkpt>
      <trkpt lat="50.52682" lon="1.58809">
        <ele>9</ele>
        <time>2021-08-09T18:46:10.641Z</time>
      </trkpt>
      <trkpt lat="50.52688" lon="1.58809">
        <ele>9</ele>
        <time>2021-08-09T18:46:15.642Z</time>
      </trkpt>
      <trkpt lat="50.52692" lon="1.58814">
        <ele>9</ele>
        <time>2021-08-09T18:46:19.651Z</time>
      </trkpt>
      <trkpt lat="50.52697" lon="1.5882">
        <ele>10</ele>
        <time>2021-08-09T18:46:24.643Z</time>
      </trkpt>
      <trkpt lat="50.52702" lon="1.58823">
        <ele>10</ele>
        <time>2021-08-09T18:46:28.643Z</time>
      </trkpt>
      <trkpt lat="50.52707" lon="1.58827">
        <ele>10</ele>
        <time>2021-08-09T18:46:32.647Z</time>
      </trkpt>
      <trkpt lat="50.52713" lon="1.58829">
        <ele>11</ele>
        <time>2021-08-09T18:46:37.645Z</time>
      </trkpt>
      <trkpt lat="50.52718" lon="1.58828">
        <ele>11</ele>
        <time>2021-08-09T18:46:41.647Z</time>
      </trkpt>
      <trkpt lat="50.52722" lon="1.58831">
        <ele>11</ele>
        <time>2021-08-09T18:46:45.643Z</time>
      </trkpt>
      <trkpt lat="50.52728" lon="1.58834">
        <ele>11</ele>
        <time>2021-08-09T18:46:50.654Z</time>
      </trkpt>
      <trkpt lat="50.52733" lon="1.58836">
        <ele>11</ele>
        <time>2021-08-09T18:46:55.647Z</time>
      </trkpt>
      <trkpt lat="50.52738" lon="1.58836">
        <ele>11</ele>
        <time>2021-08-09T18:46:59.658Z</time>
      </trkpt>
      <trkpt lat="50.52741" lon="1.5883">
        <ele>11</ele>
        <time>2021-08-09T18:47:03.652Z</time>
      </trkpt>
      <trkpt lat="50.52745" lon="1.5882">
        <ele>11</ele>
        <time>2021-08-09T18:47:08.651Z</time>
      </trkpt>
      <trkpt lat="50.52749" lon="1.58811">
        <ele>10</ele>
        <time>2021-08-09T18:47:13.649Z</time>
      </trkpt>
      <trkpt lat="50.52752" lon="1.58803">
        <ele>10</ele>
        <time>2021-08-09T18:47:18.656Z</time>
      </trkpt>
      <trkpt lat="50.52755" lon="1.58796">
        <ele>10</ele>
        <time>2021-08-09T18:47:22.659Z</time>
      </trkpt>
      <trkpt lat="50.52759" lon="1.58789">
        <ele>10</ele>
        <time>2021-08-09T18:47:27.653Z</time>
      </trkpt>
      <trkpt lat="50.52763" lon="1.58784">
        <ele>10</ele>
        <time>2021-08-09T18:47:31.662Z</time>
      </trkpt>
      <trkpt lat="50.52764" lon="1.58776">
        <ele>10</ele>
        <time>2021-08-09T18:47:35.666Z</time>
      </trkpt>
      <trkpt lat="50.52765" lon="1.58766">
        <ele>10</ele>
        <time>2021-08-09T18:47:40.648Z</time>
      </trkpt>
      <trkpt lat="50.52768" lon="1.58759">
        <ele>10</ele>
        <time>2021-08-09T18:47:44.652Z</time>
      </trkpt>
      <trkpt lat="50.52772" lon="1.5875">
        <ele>10</ele>
        <time>2021-08-09T18:47:49.655Z</time>
      </trkpt>
      <trkpt lat="50.52775" lon="1.58742">
        <ele>10</ele>
        <time>2021-08-09T18:47:54.647Z</time>
      </trkpt>
      <trkpt lat="50.52779" lon="1.58732">
        <ele>10</ele>
        <time>2021-08-09T18:47:59.654Z</time>
      </trkpt>
      <trkpt lat="50.52782" lon="1.58723">
        <ele>10</ele>
        <time>2021-08-09T18:48:04.646Z</time>
      </trkpt>
      <trkpt lat="50.52787" lon="1.58717">
        <ele>10</ele>
        <time>2021-08-09T18:48:09.643Z</time>
      </trkpt>
      <trkpt lat="50.52788" lon="1.58707">
        <ele>11</ele>
        <time>2021-08-09T18:48:14.644Z</time>
      </trkpt>
      <trkpt lat="50.52791" lon="1.58698">
        <ele>11</ele>
        <time>2021-08-09T18:48:19.648Z</time>
      </trkpt>
      <trkpt lat="50.52795" lon="1.58688">
        <ele>11</ele>
        <time>2021-08-09T18:48:24.653Z</time>
      </trkpt>
      <trkpt lat="50.52798" lon="1.58679">
        <ele>12</ele>
        <time>2021-08-09T18:48:29.643Z</time>
      </trkpt>
      <trkpt lat="50.528" lon="1.58672">
        <ele>12</ele>
        <time>2021-08-09T18:48:33.656Z</time>
      </trkpt>
      <trkpt lat="50.52803" lon="1.58664">
        <ele>12</ele>
        <time>2021-08-09T18:48:38.641Z</time>
      </trkpt>
      <trkpt lat="50.52805" lon="1.58657">
        <ele>12</ele>
        <time>2021-08-09T18:48:42.642Z</time>
      </trkpt>
      <trkpt lat="50.52809" lon="1.5865">
        <ele>12</ele>
        <time>2021-08-09T18:48:47.651Z</time>
      </trkpt>
      <trkpt lat="50.52812" lon="1.58642">
        <ele>12</ele>
        <time>2021-08-09T18:48:52.651Z</time>
      </trkpt>
      <trkpt lat="50.52816" lon="1.58633">
        <ele>12</ele>
        <time>2021-08-09T18:48:57.642Z</time>
      </trkpt>
      <trkpt lat="50.52818" lon="1.58626">
        <ele>12</ele>
        <time>2021-08-09T18:49:01.653Z</time>
      </trkpt>
      <trkpt lat="50.52821" lon="1.58617">
        <ele>12</ele>
        <time>2021-08-09T18:49:06.652Z</time>
      </trkpt>
      <trkpt lat="50.52824" lon="1.58608">
        <ele>12</ele>
        <time>2021-08-09T18:49:11.652Z</time>
      </trkpt>
      <trkpt lat="50.52827" lon="1.58599">
        <ele>12</ele>
        <time>2021-08-09T18:49:16.651Z</time>
      </trkpt>
      <trkpt lat="50.52829" lon="1.58592">
        <ele>12</ele>
        <time>2021-08-09T18:49:20.661Z</time>
      </trkpt>
      <trkpt lat="50.52834" lon="1.58585">
        <ele>12</ele>
        <time>2021-08-09T18:49:25.642Z</time>
      </trkpt>
      <trkpt lat="50.5284" lon="1.58579">
        <ele>12</ele>
        <time>2021-08-09T18:49:30.642Z</time>
      </trkpt>
      <trkpt lat="50.52845" lon="1.58576">
        <ele>12</ele>
        <time>2021-08-09T18:49:34.651Z</time>
      </trkpt>
      <trkpt lat="50.52849" lon="1.58571">
        <ele>12</ele>
        <time>2021-08-09T18:49:38.648Z</time>
      </trkpt>
      <trkpt lat="50.52854" lon="1.58564">
        <ele>12</ele>
        <time>2021-08-09T18:49:43.652Z</time>
      </trkpt>
      <trkpt lat="50.52856" lon="1.58558">
        <ele>12</ele>
        <time>2021-08-09T18:49:47.657Z</time>
      </trkpt>
      <trkpt lat="50.52859" lon="1.5855">
        <ele>12</ele>
        <time>2021-08-09T18:49:52.655Z</time>
      </trkpt>
      <trkpt lat="50.52863" lon="1.58543">
        <ele>12</ele>
        <time>2021-08-09T18:49:57.656Z</time>
      </trkpt>
      <trkpt lat="50.52867" lon="1.58534">
        <ele>12</ele>
        <time>2021-08-09T18:50:02.643Z</time>
      </trkpt>
      <trkpt lat="50.5287" lon="1.58525">
        <ele>12</ele>
        <time>2021-08-09T18:50:07.647Z</time>
      </trkpt>
      <trkpt lat="50.52874" lon="1.58517">
        <ele>12</ele>
        <time>2021-08-09T18:50:12.653Z</time>
      </trkpt>
      <trkpt lat="50.52877" lon="1.58508">
        <ele>11</ele>
        <time>2021-08-09T18:50:17.647Z</time>
      </trkpt>
      <trkpt lat="50.52881" lon="1.58501">
        <ele>11</ele>
        <time>2021-08-09T18:50:22.641Z</time>
      </trkpt>
      <trkpt lat="50.52882" lon="1.58494">
        <ele>11</ele>
        <time>2021-08-09T18:50:27.642Z</time>
      </trkpt>
      <trkpt lat="50.52884" lon="1.58486">
        <ele>11</ele>
        <time>2021-08-09T18:50:31.652Z</time>
      </trkpt>
      <trkpt lat="50.52889" lon="1.5848">
        <ele>12</ele>
        <time>2021-08-09T18:50:36.643Z</time>
      </trkpt>
      <trkpt lat="50.52894" lon="1.58471">
        <ele>12</ele>
        <time>2021-08-09T18:50:41.651Z</time>
      </trkpt>
      <trkpt lat="50.52899" lon="1.58463">
        <ele>12</ele>
        <time>2021-08-09T18:50:46.656Z</time>
      </trkpt>
      <trkpt lat="50.52905" lon="1.58457">
        <ele>12</ele>
        <time>2021-08-09T18:50:51.653Z</time>
      </trkpt>
      <trkpt lat="50.52909" lon="1.58451">
        <ele>12</ele>
        <time>2021-08-09T18:50:55.652Z</time>
      </trkpt>
      <trkpt lat="50.52912" lon="1.58443">
        <ele>12</ele>
        <time>2021-08-09T18:51:00.657Z</time>
      </trkpt>
      <trkpt lat="50.52911" lon="1.58434">
        <ele>12</ele>
        <time>2021-08-09T18:51:05.654Z</time>
      </trkpt>
      <trkpt lat="50.52911" lon="1.58425">
        <ele>12</ele>
        <time>2021-08-09T18:51:10.644Z</time>
      </trkpt>
      <trkpt lat="50.52912" lon="1.58415">
        <ele>12</ele>
        <time>2021-08-09T18:51:14.646Z</time>
      </trkpt>
      <trkpt lat="50.52911" lon="1.58404">
        <ele>12</ele>
        <time>2021-08-09T18:51:19.655Z</time>
      </trkpt>
      <trkpt lat="50.52905" lon="1.58399">
        <ele>11</ele>
        <time>2021-08-09T18:51:24.650Z</time>
      </trkpt>
      <trkpt lat="50.52902" lon="1.58396">
        <ele>10</ele>
        <time>2021-08-09T18:51:28.644Z</time>
      </trkpt>
      <trkpt lat="50.52897" lon="1.58392">
        <ele>10</ele>
        <time>2021-08-09T18:51:33.643Z</time>
      </trkpt>
      <trkpt lat="50.52892" lon="1.58388">
        <ele>10</ele>
        <time>2021-08-09T18:51:37.646Z</time>
      </trkpt>
      <trkpt lat="50.52887" lon="1.58383">
        <ele>10</ele>
        <time>2021-08-09T18:51:42.640Z</time>
      </trkpt>
      <trkpt lat="50.52886" lon="1.58376">
        <ele>10</ele>
        <time>2021-08-09T18:51:47.646Z</time>
      </trkpt>
      <trkpt lat="50.5289" lon="1.5837">
        <ele>11</ele>
        <time>2021-08-09T18:51:52.644Z</time>
      </trkpt>
      <trkpt lat="50.52893" lon="1.58365">
        <ele>11</ele>
        <time>2021-08-09T18:51:56.655Z</time>
      </trkpt>
      <trkpt lat="50.52893" lon="1.58358">
        <ele>11</ele>
        <time>2021-08-09T18:52:00.645Z</time>
      </trkpt>
      <trkpt lat="50.52892" lon="1.58349">
        <ele>11</ele>
        <time>2021-08-09T18:52:05.642Z</time>
      </trkpt>
      <trkpt lat="50.52892" lon="1.58338">
        <ele>9</ele>
        <time>2021-08-09T18:52:10.649Z</time>
      </trkpt>
      <trkpt lat="50.52894" lon="1.58329">
        <ele>9</ele>
        <time>2021-08-09T18:52:15.645Z</time>
      </trkpt>
      <trkpt lat="50.52895" lon="1.58321">
        <ele>9</ele>
        <time>2021-08-09T18:52:19.653Z</time>
      </trkpt>
      <trkpt lat="50.529" lon="1.58317">
        <ele>11</ele>
        <time>2021-08-09T18:52:24.648Z</time>
      </trkpt>
      <trkpt lat="50.52904" lon="1.58314">
        <ele>12</ele>
        <time>2021-08-09T18:52:29.646Z</time>
      </trkpt>
      <trkpt lat="50.52908" lon="1.58308">
        <ele>12</ele>
        <time>2021-08-09T18:52:34.643Z</time>
      </trkpt>
      <trkpt lat="50.52911" lon="1.583">
        <ele>12</ele>
        <time>2021-08-09T18:52:39.645Z</time>
      </trkpt>
      <trkpt lat="50.52913" lon="1.58295">
        <ele>12</ele>
        <time>2021-08-09T18:52:43.650Z</time>
      </trkpt>
      <trkpt lat="50.52915" lon="1.5829">
        <ele>12</ele>
        <time>2021-08-09T18:52:48.657Z</time>
      </trkpt>
      <trkpt lat="50.52913" lon="1.58286">
        <ele>12</ele>
        <time>2021-08-09T18:52:53.645Z</time>
      </trkpt>
      <trkpt lat="50.52915" lon="1.58277">
        <ele>12</ele>
        <time>2021-08-09T18:52:58.647Z</time>
      </trkpt>
      <trkpt lat="50.52914" lon="1.5827">
        <ele>12</ele>
        <time>2021-08-09T18:53:03.641Z</time>
      </trkpt>
      <trkpt lat="50.52915" lon="1.58261">
        <ele>12</ele>
        <time>2021-08-09T18:53:08.644Z</time>
      </trkpt>
      <trkpt lat="50.52916" lon="1.58253">
        <ele>12</ele>
        <time>2021-08-09T18:53:12.649Z</time>
      </trkpt>
      <trkpt lat="50.52916" lon="1.58243">
        <ele>12</ele>
        <time>2021-08-09T18:53:17.646Z</time>
      </trkpt>
      <trkpt lat="50.52919" lon="1.58237">
        <ele>12</ele>
        <time>2021-08-09T18:53:22.641Z</time>
      </trkpt>
      <trkpt lat="50.52924" lon="1.58235">
        <ele>13</ele>
        <time>2021-08-09T18:53:27.644Z</time>
      </trkpt>
      <trkpt lat="50.52928" lon="1.58237">
        <ele>12</ele>
        <time>2021-08-09T18:53:31.648Z</time>
      </trkpt>
      <trkpt lat="50.52932" lon="1.5824">
        <ele>13</ele>
        <time>2021-08-09T18:53:36.648Z</time>
      </trkpt>
      <trkpt lat="50.52936" lon="1.58242">
        <ele>13</ele>
        <time>2021-08-09T18:53:40.651Z</time>
      </trkpt>
      <trkpt lat="50.52941" lon="1.58245">
        <ele>13</ele>
        <time>2021-08-09T18:53:45.642Z</time>
      </trkpt>
      <trkpt lat="50.52946" lon="1.58248">
        <ele>13</ele>
        <time>2021-08-09T18:53:50.655Z</time>
      </trkpt>
      <trkpt lat="50.52951" lon="1.58251">
        <ele>13</ele>
        <time>2021-08-09T18:53:55.649Z</time>
      </trkpt>
      <trkpt lat="50.52951" lon="1.5825">
        <ele>13</ele>
        <time>2021-08-09T18:53:59.653Z</time>
      </trkpt>
      <trkpt lat="50.52955" lon="1.58251">
        <ele>13</ele>
        <time>2021-08-09T18:54:04.646Z</time>
      </trkpt>
      <trkpt lat="50.52958" lon="1.58251">
        <ele>13</ele>
        <time>2021-08-09T18:54:09.649Z</time>
      </trkpt>
      <trkpt lat="50.52965" lon="1.58256">
        <ele>14</ele>
        <time>2021-08-09T18:54:14.644Z</time>
      </trkpt>
      <trkpt lat="50.52973" lon="1.5826">
        <ele>14</ele>
        <time>2021-08-09T18:54:19.643Z</time>
      </trkpt>
      <trkpt lat="50.52979" lon="1.58263">
        <ele>14</ele>
        <time>2021-08-09T18:54:23.649Z</time>
      </trkpt>
      <trkpt lat="50.52986" lon="1.58266">
        <ele>15</ele>
        <time>2021-08-09T18:54:28.645Z</time>
      </trkpt>
      <trkpt lat="50.52992" lon="1.58269">
        <ele>15</ele>
        <time>2021-08-09T18:54:32.660Z</time>
      </trkpt>
      <trkpt lat="50.52999" lon="1.58272">
        <ele>15</ele>
        <time>2021-08-09T18:54:37.656Z</time>
      </trkpt>
      <trkpt lat="50.53005" lon="1.58276">
        <ele>15</ele>
        <time>2021-08-09T18:54:42.645Z</time>
      </trkpt>
      <trkpt lat="50.53009" lon="1.58278">
        <ele>15</ele>
        <time>2021-08-09T18:54:46.643Z</time>
      </trkpt>
      <trkpt lat="50.53014" lon="1.58279">
        <ele>15</ele>
        <time>2021-08-09T18:54:50.650Z</time>
      </trkpt>
      <trkpt lat="50.53021" lon="1.58281">
        <ele>15</ele>
        <time>2021-08-09T18:54:55.647Z</time>
      </trkpt>
      <trkpt lat="50.53027" lon="1.58282">
        <ele>15</ele>
        <time>2021-08-09T18:55:00.644Z</time>
      </trkpt>
      <trkpt lat="50.53033" lon="1.58285">
        <ele>15</ele>
        <time>2021-08-09T18:55:05.650Z</time>
      </trkpt>
      <trkpt lat="50.53038" lon="1.58287">
        <ele>15</ele>
        <time>2021-08-09T18:55:09.663Z</time>
      </trkpt>
      <trkpt lat="50.53045" lon="1.58288">
        <ele>15</ele>
        <time>2021-08-09T18:55:14.648Z</time>
      </trkpt>
      <trkpt lat="50.53051" lon="1.5829">
        <ele>15</ele>
        <time>2021-08-09T18:55:19.651Z</time>
      </trkpt>
      <trkpt lat="50.53058" lon="1.58293">
        <ele>15</ele>
        <time>2021-08-09T18:55:24.639Z</time>
      </trkpt>
      <trkpt lat="50.53063" lon="1.58296">
        <ele>15</ele>
        <time>2021-08-09T18:55:28.641Z</time>
      </trkpt>
      <trkpt lat="50.53068" lon="1.58299">
        <ele>15</ele>
        <time>2021-08-09T18:55:32.651Z</time>
      </trkpt>
      <trkpt lat="50.53073" lon="1.58302">
        <ele>14</ele>
        <time>2021-08-09T18:55:36.651Z</time>
      </trkpt>
      <trkpt lat="50.53078" lon="1.58304">
        <ele>14</ele>
        <time>2021-08-09T18:55:40.653Z</time>
      </trkpt>
      <trkpt lat="50.53084" lon="1.58306">
        <ele>14</ele>
        <time>2021-08-09T18:55:44.656Z</time>
      </trkpt>
      <trkpt lat="50.5309" lon="1.5831">
        <ele>14</ele>
        <time>2021-08-09T18:55:49.642Z</time>
      </trkpt>
      <trkpt lat="50.53095" lon="1.58313">
        <ele>14</ele>
        <time>2021-08-09T18:55:53.638Z</time>
      </trkpt>
      <trkpt lat="50.531" lon="1.58316">
        <ele>14</ele>
        <time>2021-08-09T18:55:57.643Z</time>
      </trkpt>
      <trkpt lat="50.53107" lon="1.5832">
        <ele>15</ele>
        <time>2021-08-09T18:56:02.647Z</time>
      </trkpt>
      <trkpt lat="50.53113" lon="1.58324">
        <ele>15</ele>
        <time>2021-08-09T18:56:07.646Z</time>
      </trkpt>
      <trkpt lat="50.53118" lon="1.58327">
        <ele>15</ele>
        <time>2021-08-09T18:56:11.649Z</time>
      </trkpt>
      <trkpt lat="50.53124" lon="1.58331">
        <ele>15</ele>
        <time>2021-08-09T18:56:16.650Z</time>
      </trkpt>
      <trkpt lat="50.53129" lon="1.58334">
        <ele>15</ele>
        <time>2021-08-09T18:56:20.653Z</time>
      </trkpt>
      <trkpt lat="50.53136" lon="1.58334">
        <ele>15</ele>
        <time>2021-08-09T18:56:25.643Z</time>
      </trkpt>
      <trkpt lat="50.53139" lon="1.58326">
        <ele>15</ele>
        <time>2021-08-09T18:56:29.653Z</time>
      </trkpt>
      <trkpt lat="50.53139" lon="1.58318">
        <ele>13</ele>
        <time>2021-08-09T18:56:34.642Z</time>
      </trkpt>
      <trkpt lat="50.53141" lon="1.58312">
        <ele>13</ele>
        <time>2021-08-09T18:56:39.649Z</time>
      </trkpt>
      <trkpt lat="50.53138" lon="1.5831">
        <ele>13</ele>
        <time>2021-08-09T18:56:44.645Z</time>
      </trkpt>
      <trkpt lat="50.5314" lon="1.5831">
        <ele>13</ele>
        <time>2021-08-09T18:56:49.654Z</time>
      </trkpt>
      <trkpt lat="50.53142" lon="1.58302">
        <ele>13</ele>
        <time>2021-08-09T18:56:54.661Z</time>
      </trkpt>
      <trkpt lat="50.53144" lon="1.58296">
        <ele>13</ele>
        <time>2021-08-09T18:56:58.650Z</time>
      </trkpt>
      <trkpt lat="50.53146" lon="1.58288">
        <ele>13</ele>
        <time>2021-08-09T18:57:03.641Z</time>
      </trkpt>
      <trkpt lat="50.53148" lon="1.58281">
        <ele>13</ele>
        <time>2021-08-09T18:57:07.651Z</time>
      </trkpt>
      <trkpt lat="50.5315" lon="1.58275">
        <ele>13</ele>
        <time>2021-08-09T18:57:11.656Z</time>
      </trkpt>
      <trkpt lat="50.53152" lon="1.58267">
        <ele>13</ele>
        <time>2021-08-09T18:57:16.659Z</time>
      </trkpt>
      <trkpt lat="50.53153" lon="1.5826">
        <ele>11</ele>
        <time>2021-08-09T18:57:20.722Z</time>
      </trkpt>
      <trkpt lat="50.53155" lon="1.58253">
        <ele>11</ele>
        <time>2021-08-09T18:57:25.645Z</time>
      </trkpt>
      <trkpt lat="50.53156" lon="1.58245">
        <ele>11</ele>
        <time>2021-08-09T18:57:30.651Z</time>
      </trkpt>
      <trkpt lat="50.53158" lon="1.58237">
        <ele>11</ele>
        <time>2021-08-09T18:57:35.648Z</time>
      </trkpt>
      <trkpt lat="50.5316" lon="1.5823">
        <ele>9</ele>
        <time>2021-08-09T18:57:40.653Z</time>
      </trkpt>
      <trkpt lat="50.53162" lon="1.58225">
        <ele>9</ele>
        <time>2021-08-09T18:57:44.656Z</time>
      </trkpt>
      <trkpt lat="50.53166" lon="1.58223">
        <ele>9</ele>
        <time>2021-08-09T18:57:49.645Z</time>
      </trkpt>
      <trkpt lat="50.53169" lon="1.58221">
        <ele>9</ele>
        <time>2021-08-09T18:57:54.644Z</time>
      </trkpt>
      <trkpt lat="50.53174" lon="1.58216">
        <ele>9</ele>
        <time>2021-08-09T18:58:03.683Z</time>
      </trkpt>
      <trkpt lat="50.53175" lon="1.58211">
        <ele>9</ele>
        <time>2021-08-09T18:58:08.646Z</time>
      </trkpt>
      <trkpt lat="50.53175" lon="1.58208">
        <ele>7</ele>
        <time>2021-08-09T18:58:13.648Z</time>
      </trkpt>
      <trkpt lat="50.53176" lon="1.58208">
        <ele>7</ele>
        <time>2021-08-09T18:58:18.645Z</time>
      </trkpt>
      <trkpt lat="50.53177" lon="1.58206">
        <ele>7</ele>
        <time>2021-08-09T18:58:23.649Z</time>
      </trkpt>
      <trkpt lat="50.53176" lon="1.5821">
        <ele>9</ele>
        <time>2021-08-09T18:59:35.645Z</time>
      </trkpt>
      <trkpt lat="50.53178" lon="1.58214">
        <ele>9</ele>
        <time>2021-08-09T18:59:39.669Z</time>
      </trkpt>
      <trkpt lat="50.53182" lon="1.5822">
        <ele>9</ele>
        <time>2021-08-09T18:59:44.638Z</time>
      </trkpt>
      <trkpt lat="50.53182" lon="1.58226">
        <ele>9</ele>
        <time>2021-08-09T18:59:48.642Z</time>
      </trkpt>
      <trkpt lat="50.53183" lon="1.58231">
        <ele>9</ele>
        <time>2021-08-09T18:59:52.645Z</time>
      </trkpt>
      <trkpt lat="50.53184" lon="1.58233">
        <ele>9</ele>
        <time>2021-08-09T18:59:56.646Z</time>
      </trkpt>
      <trkpt lat="50.53188" lon="1.58237">
        <ele>12</ele>
        <time>2021-08-09T19:00:01.652Z</time>
      </trkpt>
      <trkpt lat="50.53195" lon="1.58241">
        <ele>12</ele>
        <time>2021-08-09T19:00:06.648Z</time>
      </trkpt>
      <trkpt lat="50.53199" lon="1.58242">
        <ele>12</ele>
        <time>2021-08-09T19:00:11.647Z</time>
      </trkpt>
      <trkpt lat="50.53205" lon="1.58243">
        <ele>12</ele>
        <time>2021-08-09T19:00:16.644Z</time>
      </trkpt>
      <trkpt lat="50.53209" lon="1.58245">
        <ele>13</ele>
        <time>2021-08-09T19:00:20.643Z</time>
      </trkpt>
      <trkpt lat="50.53215" lon="1.58248">
        <ele>13</ele>
        <time>2021-08-09T19:00:25.644Z</time>
      </trkpt>
      <trkpt lat="50.5322" lon="1.58253">
        <ele>13</ele>
        <time>2021-08-09T19:00:30.641Z</time>
      </trkpt>
      <trkpt lat="50.53224" lon="1.58256">
        <ele>13</ele>
        <time>2021-08-09T19:00:35.659Z</time>
      </trkpt>
      <trkpt lat="50.53229" lon="1.58259">
        <ele>13</ele>
        <time>2021-08-09T19:00:40.645Z</time>
      </trkpt>
      <trkpt lat="50.53235" lon="1.58263">
        <ele>13</ele>
        <time>2021-08-09T19:00:45.643Z</time>
      </trkpt>
      <trkpt lat="50.53238" lon="1.58267">
        <ele>14</ele>
        <time>2021-08-09T19:00:49.654Z</time>
      </trkpt>
      <trkpt lat="50.53242" lon="1.58273">
        <ele>14</ele>
        <time>2021-08-09T19:00:54.641Z</time>
      </trkpt>
      <trkpt lat="50.53243" lon="1.58277">
        <ele>14</ele>
        <time>2021-08-09T19:00:58.641Z</time>
      </trkpt>
      <trkpt lat="50.53242" lon="1.58283">
        <ele>14</ele>
        <time>2021-08-09T19:01:02.653Z</time>
      </trkpt>
      <trkpt lat="50.53244" lon="1.58289">
        <ele>14</ele>
        <time>2021-08-09T19:01:07.646Z</time>
      </trkpt>
      <trkpt lat="50.53248" lon="1.58292">
        <ele>14</ele>
        <time>2021-08-09T19:01:12.644Z</time>
      </trkpt>
      <trkpt lat="50.53253" lon="1.58294">
        <ele>14</ele>
        <time>2021-08-09T19:01:17.646Z</time>
      </trkpt>
      <trkpt lat="50.53256" lon="1.58296">
        <ele>14</ele>
        <time>2021-08-09T19:01:21.684Z</time>
      </trkpt>
      <trkpt lat="50.53259" lon="1.58301">
        <ele>14</ele>
        <time>2021-08-09T19:01:26.646Z</time>
      </trkpt>
      <trkpt lat="50.5326" lon="1.58308">
        <ele>14</ele>
        <time>2021-08-09T19:03:13.644Z</time>
      </trkpt>
      <trkpt lat="50.53264" lon="1.58311">
        <ele>14</ele>
        <time>2021-08-09T19:03:18.647Z</time>
      </trkpt>
      <trkpt lat="50.53266" lon="1.58312">
        <ele>14</ele>
        <time>2021-08-09T19:03:22.649Z</time>
      </trkpt>
      <trkpt lat="50.53269" lon="1.58313">
        <ele>14</ele>
        <time>2021-08-09T19:03:27.651Z</time>
      </trkpt>
      <trkpt lat="50.53272" lon="1.58316">
        <ele>14</ele>
        <time>2021-08-09T19:03:32.650Z</time>
      </trkpt>
      <trkpt lat="50.53274" lon="1.58317">
        <ele>14</ele>
        <time>2021-08-09T19:04:09.646Z</time>
      </trkpt>
      <trkpt lat="50.53275" lon="1.5832">
        <ele>14</ele>
        <time>2021-08-09T19:04:14.650Z</time>
      </trkpt>
      <trkpt lat="50.53274" lon="1.58327">
        <ele>14</ele>
        <time>2021-08-09T19:04:19.644Z</time>
      </trkpt>
      <trkpt lat="50.53273" lon="1.58336">
        <ele>14</ele>
        <time>2021-08-09T19:04:24.646Z</time>
      </trkpt>
      <trkpt lat="50.53274" lon="1.58341">
        <ele>14</ele>
        <time>2021-08-09T19:04:28.667Z</time>
      </trkpt>
      <trkpt lat="50.53277" lon="1.58351">
        <ele>13</ele>
        <time>2021-08-09T19:04:33.642Z</time>
      </trkpt>
      <trkpt lat="50.53275" lon="1.58357">
        <ele>13</ele>
        <time>2021-08-09T19:04:37.647Z</time>
      </trkpt>
      <trkpt lat="50.5327" lon="1.58361">
        <ele>13</ele>
        <time>2021-08-09T19:04:41.644Z</time>
      </trkpt>
      <trkpt lat="50.53271" lon="1.58365">
        <ele>13</ele>
        <time>2021-08-09T19:04:46.642Z</time>
      </trkpt>
      <trkpt lat="50.53271" lon="1.58364">
        <ele>13</ele>
        <time>2021-08-09T19:05:13.650Z</time>
      </trkpt>
      <trkpt lat="50.53269" lon="1.58371">
        <ele>13</ele>
        <time>2021-08-09T19:05:18.650Z</time>
      </trkpt>
      <trkpt lat="50.53268" lon="1.58377">
        <ele>13</ele>
        <time>2021-08-09T19:05:22.651Z</time>
      </trkpt>
      <trkpt lat="50.53266" lon="1.58383">
        <ele>13</ele>
        <time>2021-08-09T19:05:26.647Z</time>
      </trkpt>
      <trkpt lat="50.53265" lon="1.58391">
        <ele>13</ele>
        <time>2021-08-09T19:05:31.647Z</time>
      </trkpt>
      <trkpt lat="50.53262" lon="1.58399">
        <ele>12</ele>
        <time>2021-08-09T19:05:35.646Z</time>
      </trkpt>
      <trkpt lat="50.53264" lon="1.58405">
        <ele>12</ele>
        <time>2021-08-09T19:05:39.649Z</time>
      </trkpt>
      <trkpt lat="50.53269" lon="1.58411">
        <ele>12</ele>
        <time>2021-08-09T19:05:44.647Z</time>
      </trkpt>
      <trkpt lat="50.53274" lon="1.58417">
        <ele>12</ele>
        <time>2021-08-09T19:05:49.643Z</time>
      </trkpt>
      <trkpt lat="50.5328" lon="1.58421">
        <ele>12</ele>
        <time>2021-08-09T19:05:54.651Z</time>
      </trkpt>
      <trkpt lat="50.53287" lon="1.58425">
        <ele>12</ele>
        <time>2021-08-09T19:05:59.639Z</time>
      </trkpt>
      <trkpt lat="50.53294" lon="1.58431">
        <ele>12</ele>
        <time>2021-08-09T19:06:04.646Z</time>
      </trkpt>
      <trkpt lat="50.53301" lon="1.58437">
        <ele>12</ele>
        <time>2021-08-09T19:06:09.644Z</time>
      </trkpt>
      <trkpt lat="50.53307" lon="1.58442">
        <ele>12</ele>
        <time>2021-08-09T19:06:14.659Z</time>
      </trkpt>
      <trkpt lat="50.53314" lon="1.58447">
        <ele>12</ele>
        <time>2021-08-09T19:06:19.648Z</time>
      </trkpt>
      <trkpt lat="50.5332" lon="1.58454">
        <ele>11</ele>
        <time>2021-08-09T19:06:24.654Z</time>
      </trkpt>
      <trkpt lat="50.53325" lon="1.5846">
        <ele>11</ele>
        <time>2021-08-09T19:06:29.653Z</time>
      </trkpt>
      <trkpt lat="50.53331" lon="1.58465">
        <ele>11</ele>
        <time>2021-08-09T19:06:34.654Z</time>
      </trkpt>
      <trkpt lat="50.53336" lon="1.58469">
        <ele>11</ele>
        <time>2021-08-09T19:06:38.655Z</time>
      </trkpt>
      <trkpt lat="50.53343" lon="1.58474">
        <ele>11</ele>
        <time>2021-08-09T19:06:43.646Z</time>
      </trkpt>
      <trkpt lat="50.53347" lon="1.58478">
        <ele>11</ele>
        <time>2021-08-09T19:06:47.657Z</time>
      </trkpt>
      <trkpt lat="50.53353" lon="1.58482">
        <ele>11</ele>
        <time>2021-08-09T19:06:52.659Z</time>
      </trkpt>
      <trkpt lat="50.53359" lon="1.58488">
        <ele>11</ele>
        <time>2021-08-09T19:06:57.650Z</time>
      </trkpt>
      <trkpt lat="50.53364" lon="1.58492">
        <ele>11</ele>
        <time>2021-08-09T19:07:01.659Z</time>
      </trkpt>
      <trkpt lat="50.5337" lon="1.58497">
        <ele>11</ele>
        <time>2021-08-09T19:07:06.656Z</time>
      </trkpt>
      <trkpt lat="50.53375" lon="1.585">
        <ele>10</ele>
        <time>2021-08-09T19:07:10.653Z</time>
      </trkpt>
      <trkpt lat="50.53382" lon="1.58505">
        <ele>10</ele>
        <time>2021-08-09T19:07:15.651Z</time>
      </trkpt>
      <trkpt lat="50.53387" lon="1.5851">
        <ele>10</ele>
        <time>2021-08-09T19:07:20.743Z</time>
      </trkpt>
      <trkpt lat="50.53394" lon="1.58515">
        <ele>10</ele>
        <time>2021-08-09T19:07:25.643Z</time>
      </trkpt>
      <trkpt lat="50.534" lon="1.58521">
        <ele>10</ele>
        <time>2021-08-09T19:07:30.654Z</time>
      </trkpt>
      <trkpt lat="50.53407" lon="1.58526">
        <ele>10</ele>
        <time>2021-08-09T19:07:35.652Z</time>
      </trkpt>
      <trkpt lat="50.53413" lon="1.58532">
        <ele>10</ele>
        <time>2021-08-09T19:07:40.652Z</time>
      </trkpt>
      <trkpt lat="50.5342" lon="1.58537">
        <ele>10</ele>
        <time>2021-08-09T19:07:45.652Z</time>
      </trkpt>
      <trkpt lat="50.53426" lon="1.58541">
        <ele>10</ele>
        <time>2021-08-09T19:07:50.655Z</time>
      </trkpt>
      <trkpt lat="50.53432" lon="1.58544">
        <ele>10</ele>
        <time>2021-08-09T19:07:54.650Z</time>
      </trkpt>
      <trkpt lat="50.53438" lon="1.5855">
        <ele>10</ele>
        <time>2021-08-09T19:07:59.650Z</time>
      </trkpt>
      <trkpt lat="50.53445" lon="1.58556">
        <ele>10</ele>
        <time>2021-08-09T19:08:04.658Z</time>
      </trkpt>
      <trkpt lat="50.53452" lon="1.58561">
        <ele>10</ele>
        <time>2021-08-09T19:08:09.646Z</time>
      </trkpt>
      <trkpt lat="50.53458" lon="1.58566">
        <ele>10</ele>
        <time>2021-08-09T19:08:14.653Z</time>
      </trkpt>
      <trkpt lat="50.53463" lon="1.58568">
        <ele>9</ele>
        <time>2021-08-09T19:08:18.655Z</time>
      </trkpt>
      <trkpt lat="50.53469" lon="1.58572">
        <ele>9</ele>
        <time>2021-08-09T19:08:23.653Z</time>
      </trkpt>
      <trkpt lat="50.53473" lon="1.58577">
        <ele>9</ele>
        <time>2021-08-09T19:08:27.652Z</time>
      </trkpt>
      <trkpt lat="50.5348" lon="1.58582">
        <ele>9</ele>
        <time>2021-08-09T19:08:32.657Z</time>
      </trkpt>
      <trkpt lat="50.53485" lon="1.58588">
        <ele>9</ele>
        <time>2021-08-09T19:08:37.650Z</time>
      </trkpt>
      <trkpt lat="50.53491" lon="1.58595">
        <ele>9</ele>
        <time>2021-08-09T19:08:42.643Z</time>
      </trkpt>
      <trkpt lat="50.53497" lon="1.58601">
        <ele>9</ele>
        <time>2021-08-09T19:08:47.651Z</time>
      </trkpt>
      <trkpt lat="50.53503" lon="1.58607">
        <ele>9</ele>
        <time>2021-08-09T19:08:52.649Z</time>
      </trkpt>
      <trkpt lat="50.53508" lon="1.58611">
        <ele>9</ele>
        <time>2021-08-09T19:08:56.651Z</time>
      </trkpt>
      <trkpt lat="50.53514" lon="1.58616">
        <ele>9</ele>
        <time>2021-08-09T19:09:01.651Z</time>
      </trkpt>
      <trkpt lat="50.5352" lon="1.5862">
        <ele>9</ele>
        <time>2021-08-09T19:09:06.651Z</time>
      </trkpt>
      <trkpt lat="50.53525" lon="1.58624">
        <ele>9</ele>
        <time>2021-08-09T19:09:10.656Z</time>
      </trkpt>
      <trkpt lat="50.5353" lon="1.58628">
        <ele>8</ele>
        <time>2021-08-09T19:09:14.655Z</time>
      </trkpt>
      <trkpt lat="50.53537" lon="1.58633">
        <ele>8</ele>
        <time>2021-08-09T19:09:19.656Z</time>
      </trkpt>
      <trkpt lat="50.53543" lon="1.58639">
        <ele>8</ele>
        <time>2021-08-09T19:09:24.662Z</time>
      </trkpt>
      <trkpt lat="50.53549" lon="1.58644">
        <ele>8</ele>
        <time>2021-08-09T19:09:29.643Z</time>
      </trkpt>
      <trkpt lat="50.53554" lon="1.58648">
        <ele>8</ele>
        <time>2021-08-09T19:09:33.647Z</time>
      </trkpt>
      <trkpt lat="50.53559" lon="1.58652">
        <ele>8</ele>
        <time>2021-08-09T19:09:37.644Z</time>
      </trkpt>
      <trkpt lat="50.53565" lon="1.58657">
        <ele>8</ele>
        <time>2021-08-09T19:09:42.649Z</time>
      </trkpt>
      <trkpt lat="50.5357" lon="1.58661">
        <ele>8</ele>
        <time>2021-08-09T19:09:46.654Z</time>
      </trkpt>
      <trkpt lat="50.53577" lon="1.58665">
        <ele>8</ele>
        <time>2021-08-09T19:09:51.649Z</time>
      </trkpt>
      <trkpt lat="50.53582" lon="1.58669">
        <ele>8</ele>
        <time>2021-08-09T19:09:55.651Z</time>
      </trkpt>
      <trkpt lat="50.53589" lon="1.58675">
        <ele>8</ele>
        <time>2021-08-09T19:10:00.653Z</time>
      </trkpt>
      <trkpt lat="50.53594" lon="1.58678">
        <ele>8</ele>
        <time>2021-08-09T19:10:04.655Z</time>
      </trkpt>
      <trkpt lat="50.536" lon="1.58683">
        <ele>8</ele>
        <time>2021-08-09T19:10:09.654Z</time>
      </trkpt>
      <trkpt lat="50.53607" lon="1.58689">
        <ele>8</ele>
        <time>2021-08-09T19:10:14.651Z</time>
      </trkpt>
      <trkpt lat="50.53614" lon="1.58695">
        <ele>8</ele>
        <time>2021-08-09T19:10:19.654Z</time>
      </trkpt>
      <trkpt lat="50.5362" lon="1.587">
        <ele>8</ele>
        <time>2021-08-09T19:10:24.657Z</time>
      </trkpt>
      <trkpt lat="50.53627" lon="1.58705">
        <ele>8</ele>
        <time>2021-08-09T19:10:29.656Z</time>
      </trkpt>
      <trkpt lat="50.53632" lon="1.58709">
        <ele>8</ele>
        <time>2021-08-09T19:10:34.652Z</time>
      </trkpt>
      <trkpt lat="50.53639" lon="1.58714">
        <ele>8</ele>
        <time>2021-08-09T19:10:39.670Z</time>
      </trkpt>
      <trkpt lat="50.53646" lon="1.5872">
        <ele>8</ele>
        <time>2021-08-09T19:10:44.658Z</time>
      </trkpt>
      <trkpt lat="50.53654" lon="1.58726">
        <ele>8</ele>
        <time>2021-08-09T19:10:49.647Z</time>
      </trkpt>
      <trkpt lat="50.5366" lon="1.5873">
        <ele>8</ele>
        <time>2021-08-09T19:10:54.657Z</time>
      </trkpt>
      <trkpt lat="50.53667" lon="1.58735">
        <ele>8</ele>
        <time>2021-08-09T19:10:59.654Z</time>
      </trkpt>
      <trkpt lat="50.53674" lon="1.5874">
        <ele>7</ele>
        <time>2021-08-09T19:11:04.655Z</time>
      </trkpt>
      <trkpt lat="50.53681" lon="1.58744">
        <ele>7</ele>
        <time>2021-08-09T19:11:09.652Z</time>
      </trkpt>
      <trkpt lat="50.53687" lon="1.58749">
        <ele>7</ele>
        <time>2021-08-09T19:11:14.657Z</time>
      </trkpt>
      <trkpt lat="50.53694" lon="1.58753">
        <ele>7</ele>
        <time>2021-08-09T19:11:19.654Z</time>
      </trkpt>
      <trkpt lat="50.53701" lon="1.58757">
        <ele>7</ele>
        <time>2021-08-09T19:11:24.655Z</time>
      </trkpt>
      <trkpt lat="50.53707" lon="1.58762">
        <ele>7</ele>
        <time>2021-08-09T19:11:29.662Z</time>
      </trkpt>
      <trkpt lat="50.53713" lon="1.58767">
        <ele>8</ele>
        <time>2021-08-09T19:11:34.656Z</time>
      </trkpt>
      <trkpt lat="50.53719" lon="1.58771">
        <ele>8</ele>
        <time>2021-08-09T19:11:39.647Z</time>
      </trkpt>
      <trkpt lat="50.53725" lon="1.58776">
        <ele>8</ele>
        <time>2021-08-09T19:11:44.644Z</time>
      </trkpt>
      <trkpt lat="50.53731" lon="1.5878">
        <ele>8</ele>
        <time>2021-08-09T19:11:48.647Z</time>
      </trkpt>
      <trkpt lat="50.53737" lon="1.58785">
        <ele>8</ele>
        <time>2021-08-09T19:11:53.640Z</time>
      </trkpt>
      <trkpt lat="50.53742" lon="1.58788">
        <ele>8</ele>
        <time>2021-08-09T19:11:57.651Z</time>
      </trkpt>
      <trkpt lat="50.53749" lon="1.58793">
        <ele>8</ele>
        <time>2021-08-09T19:12:02.650Z</time>
      </trkpt>
      <trkpt lat="50.53754" lon="1.58796">
        <ele>8</ele>
        <time>2021-08-09T19:12:06.651Z</time>
      </trkpt>
      <trkpt lat="50.5376" lon="1.588">
        <ele>8</ele>
        <time>2021-08-09T19:12:11.646Z</time>
      </trkpt>
      <trkpt lat="50.53766" lon="1.58804">
        <ele>8</ele>
        <time>2021-08-09T19:12:16.667Z</time>
      </trkpt>
      <trkpt lat="50.53772" lon="1.5881">
        <ele>8</ele>
        <time>2021-08-09T19:12:21.652Z</time>
      </trkpt>
      <trkpt lat="50.53776" lon="1.58815">
        <ele>8</ele>
        <time>2021-08-09T19:12:25.658Z</time>
      </trkpt>
      <trkpt lat="50.53781" lon="1.5882">
        <ele>7</ele>
        <time>2021-08-09T19:12:29.657Z</time>
      </trkpt>
      <trkpt lat="50.53787" lon="1.58826">
        <ele>7</ele>
        <time>2021-08-09T19:12:34.665Z</time>
      </trkpt>
      <trkpt lat="50.53792" lon="1.58833">
        <ele>8</ele>
        <time>2021-08-09T19:12:39.657Z</time>
      </trkpt>
      <trkpt lat="50.53798" lon="1.58839">
        <ele>8</ele>
        <time>2021-08-09T19:12:44.649Z</time>
      </trkpt>
      <trkpt lat="50.53803" lon="1.58843">
        <ele>8</ele>
        <time>2021-08-09T19:12:49.652Z</time>
      </trkpt>
      <trkpt lat="50.5381" lon="1.58843">
        <ele>8</ele>
        <time>2021-08-09T19:12:54.655Z</time>
      </trkpt>
      <trkpt lat="50.53816" lon="1.58835">
        <ele>8</ele>
        <time>2021-08-09T19:12:59.658Z</time>
      </trkpt>
      <trkpt lat="50.53821" lon="1.58832">
        <ele>9</ele>
        <time>2021-08-09T19:13:04.645Z</time>
      </trkpt>
      <trkpt lat="50.53824" lon="1.58828">
        <ele>9</ele>
        <time>2021-08-09T19:13:08.683Z</time>
      </trkpt>
      <trkpt lat="50.53829" lon="1.58823">
        <ele>9</ele>
        <time>2021-08-09T19:13:13.642Z</time>
      </trkpt>
      <trkpt lat="50.53832" lon="1.58822">
        <ele>9</ele>
        <time>2021-08-09T19:13:18.640Z</time>
      </trkpt>
      <trkpt lat="50.53837" lon="1.58822">
        <ele>9</ele>
        <time>2021-08-09T19:13:22.640Z</time>
      </trkpt>
      <trkpt lat="50.53844" lon="1.58823">
        <ele>9</ele>
        <time>2021-08-09T19:13:27.670Z</time>
      </trkpt>
      <trkpt lat="50.5385" lon="1.58822">
        <ele>9</ele>
        <time>2021-08-09T19:13:32.640Z</time>
      </trkpt>
      <trkpt lat="50.53855" lon="1.58823">
        <ele>9</ele>
        <time>2021-08-09T19:13:37.649Z</time>
      </trkpt>
      <trkpt lat="50.53857" lon="1.58823">
        <ele>9</ele>
        <time>2021-08-09T19:13:41.658Z</time>
      </trkpt>
      <trkpt lat="50.53862" lon="1.58824">
        <ele>9</ele>
        <time>2021-08-09T19:13:45.672Z</time>
      </trkpt>
      <trkpt lat="50.53869" lon="1.58824">
        <ele>9</ele>
        <time>2021-08-09T19:13:50.642Z</time>
      </trkpt>
      <trkpt lat="50.53876" lon="1.58822">
        <ele>8</ele>
        <time>2021-08-09T19:13:55.645Z</time>
      </trkpt>
      <trkpt lat="50.5388" lon="1.58819">
        <ele>9</ele>
        <time>2021-08-09T19:13:59.639Z</time>
      </trkpt>
      <trkpt lat="50.53885" lon="1.58817">
        <ele>9</ele>
        <time>2021-08-09T19:14:04.640Z</time>
      </trkpt>
      <trkpt lat="50.53891" lon="1.58814">
        <ele>9</ele>
        <time>2021-08-09T19:14:09.643Z</time>
      </trkpt>
      <trkpt lat="50.53897" lon="1.5881">
        <ele>9</ele>
        <time>2021-08-09T19:14:13.652Z</time>
      </trkpt>
      <trkpt lat="50.539" lon="1.58803">
        <ele>9</ele>
        <time>2021-08-09T19:14:18.656Z</time>
      </trkpt>
      <trkpt lat="50.53901" lon="1.58795">
        <ele>9</ele>
        <time>2021-08-09T19:14:23.654Z</time>
      </trkpt>
      <trkpt lat="50.53901" lon="1.58795">
        <ele>9</ele>
        <time>2021-08-09T19:15:46.648Z</time>
      </trkpt>
      <trkpt lat="50.539" lon="1.58799">
        <ele>9</ele>
        <time>2021-08-09T19:15:51.638Z</time>
      </trkpt>
      <trkpt lat="50.539" lon="1.58803">
        <ele>9</ele>
        <time>2021-08-09T19:15:55.641Z</time>
      </trkpt>
      <trkpt lat="50.53901" lon="1.58807">
        <ele>9</ele>
        <time>2021-08-09T19:16:00.646Z</time>
      </trkpt>
      <trkpt lat="50.53898" lon="1.5881">
        <ele>9</ele>
        <time>2021-08-09T19:16:05.657Z</time>
      </trkpt>
      <trkpt lat="50.53891" lon="1.58814">
        <ele>9</ele>
        <time>2021-08-09T19:16:10.637Z</time>
      </trkpt>
      <trkpt lat="50.53886" lon="1.58818">
        <ele>9</ele>
        <time>2021-08-09T19:16:15.647Z</time>
      </trkpt>
      <trkpt lat="50.53881" lon="1.58821">
        <ele>8</ele>
        <time>2021-08-09T19:16:19.647Z</time>
      </trkpt>
      <trkpt lat="50.53879" lon="1.5882">
        <ele>8</ele>
        <time>2021-08-09T19:16:24.644Z</time>
      </trkpt>
      <trkpt lat="50.53874" lon="1.58824">
        <ele>9</ele>
        <time>2021-08-09T19:16:28.647Z</time>
      </trkpt>
      <trkpt lat="50.53866" lon="1.58827">
        <ele>9</ele>
        <time>2021-08-09T19:16:33.649Z</time>
      </trkpt>
      <trkpt lat="50.53857" lon="1.58824">
        <ele>9</ele>
        <time>2021-08-09T19:16:38.648Z</time>
      </trkpt>
      <trkpt lat="50.53852" lon="1.58823">
        <ele>9</ele>
        <time>2021-08-09T19:16:42.652Z</time>
      </trkpt>
      <trkpt lat="50.53845" lon="1.58823">
        <ele>9</ele>
        <time>2021-08-09T19:16:47.643Z</time>
      </trkpt>
      <trkpt lat="50.5384" lon="1.58823">
        <ele>9</ele>
        <time>2021-08-09T19:16:51.642Z</time>
      </trkpt>
      <trkpt lat="50.53832" lon="1.58823">
        <ele>9</ele>
        <time>2021-08-09T19:16:56.639Z</time>
      </trkpt>
      <trkpt lat="50.53827" lon="1.58827">
        <ele>9</ele>
        <time>2021-08-09T19:17:00.642Z</time>
      </trkpt>
      <trkpt lat="50.53822" lon="1.58833">
        <ele>9</ele>
        <time>2021-08-09T19:17:05.648Z</time>
      </trkpt>
      <trkpt lat="50.53816" lon="1.58838">
        <ele>8</ele>
        <time>2021-08-09T19:17:09.648Z</time>
      </trkpt>
      <trkpt lat="50.53811" lon="1.58842">
        <ele>8</ele>
        <time>2021-08-09T19:17:14.657Z</time>
      </trkpt>
      <trkpt lat="50.53805" lon="1.58841">
        <ele>8</ele>
        <time>2021-08-09T19:17:19.656Z</time>
      </trkpt>
      <trkpt lat="50.538" lon="1.58841">
        <ele>8</ele>
        <time>2021-08-09T19:17:23.719Z</time>
      </trkpt>
      <trkpt lat="50.53801" lon="1.58852">
        <ele>9</ele>
        <time>2021-08-09T19:17:28.655Z</time>
      </trkpt>
      <trkpt lat="50.53803" lon="1.58857">
        <ele>9</ele>
        <time>2021-08-09T19:17:32.652Z</time>
      </trkpt>
      <trkpt lat="50.53806" lon="1.58865">
        <ele>9</ele>
        <time>2021-08-09T19:17:37.655Z</time>
      </trkpt>
      <trkpt lat="50.53808" lon="1.58872">
        <ele>9</ele>
        <time>2021-08-09T19:17:41.646Z</time>
      </trkpt>
      <trkpt lat="50.53808" lon="1.58881">
        <ele>8</ele>
        <time>2021-08-09T19:17:46.638Z</time>
      </trkpt>
      <trkpt lat="50.53803" lon="1.58882">
        <ele>8</ele>
        <time>2021-08-09T19:17:50.649Z</time>
      </trkpt>
      <trkpt lat="50.53797" lon="1.58886">
        <ele>8</ele>
        <time>2021-08-09T19:17:55.645Z</time>
      </trkpt>
      <trkpt lat="50.53796" lon="1.58895">
        <ele>8</ele>
        <time>2021-08-09T19:18:00.647Z</time>
      </trkpt>
      <trkpt lat="50.53792" lon="1.58899">
        <ele>8</ele>
        <time>2021-08-09T19:18:04.672Z</time>
      </trkpt>
      <trkpt lat="50.5379" lon="1.58908">
        <ele>8</ele>
        <time>2021-08-09T19:18:09.644Z</time>
      </trkpt>
      <trkpt lat="50.5379" lon="1.58918">
        <ele>8</ele>
        <time>2021-08-09T19:18:14.647Z</time>
      </trkpt>
      <trkpt lat="50.5379" lon="1.58927">
        <ele>8</ele>
        <time>2021-08-09T19:18:18.747Z</time>
      </trkpt>
      <trkpt lat="50.53791" lon="1.58937">
        <ele>9</ele>
        <time>2021-08-09T19:18:23.645Z</time>
      </trkpt>
      <trkpt lat="50.53792" lon="1.58942">
        <ele>8</ele>
        <time>2021-08-09T19:18:28.644Z</time>
      </trkpt>
      <trkpt lat="50.53794" lon="1.58951">
        <ele>8</ele>
        <time>2021-08-09T19:18:33.646Z</time>
      </trkpt>
      <trkpt lat="50.53796" lon="1.58959">
        <ele>8</ele>
        <time>2021-08-09T19:18:37.643Z</time>
      </trkpt>
      <trkpt lat="50.53797" lon="1.58969">
        <ele>8</ele>
        <time>2021-08-09T19:18:42.643Z</time>
      </trkpt>
      <trkpt lat="50.53797" lon="1.58977">
        <ele>8</ele>
        <time>2021-08-09T19:18:46.678Z</time>
      </trkpt>
      <trkpt lat="50.53792" lon="1.58984">
        <ele>8</ele>
        <time>2021-08-09T19:18:51.638Z</time>
      </trkpt>
      <trkpt lat="50.53788" lon="1.58988">
        <ele>7</ele>
        <time>2021-08-09T19:18:55.645Z</time>
      </trkpt>
      <trkpt lat="50.53781" lon="1.58992">
        <ele>7</ele>
        <time>2021-08-09T19:19:00.645Z</time>
      </trkpt>
      <trkpt lat="50.53775" lon="1.58993">
        <ele>7</ele>
        <time>2021-08-09T19:19:05.648Z</time>
      </trkpt>
      <trkpt lat="50.53768" lon="1.58994">
        <ele>7</ele>
        <time>2021-08-09T19:19:10.649Z</time>
      </trkpt>
      <trkpt lat="50.53763" lon="1.58993">
        <ele>7</ele>
        <time>2021-08-09T19:19:24.670Z</time>
      </trkpt>
      <trkpt lat="50.53755" lon="1.58998">
        <ele>7</ele>
        <time>2021-08-09T19:19:29.653Z</time>
      </trkpt>
      <trkpt lat="50.53748" lon="1.59001">
        <ele>7</ele>
        <time>2021-08-09T19:19:34.637Z</time>
      </trkpt>
      <trkpt lat="50.53742" lon="1.59002">
        <ele>7</ele>
        <time>2021-08-09T19:19:38.649Z</time>
      </trkpt>
      <trkpt lat="50.53741" lon="1.59004">
        <ele>7</ele>
        <time>2021-08-09T19:19:43.673Z</time>
      </trkpt>
      <trkpt lat="50.53734" lon="1.59008">
        <ele>7</ele>
        <time>2021-08-09T19:19:48.645Z</time>
      </trkpt>
      <trkpt lat="50.53728" lon="1.59011">
        <ele>7</ele>
        <time>2021-08-09T19:19:52.645Z</time>
      </trkpt>
      <trkpt lat="50.53721" lon="1.59014">
        <ele>7</ele>
        <time>2021-08-09T19:19:57.650Z</time>
      </trkpt>
      <trkpt lat="50.53716" lon="1.59017">
        <ele>7</ele>
        <time>2021-08-09T19:20:02.652Z</time>
      </trkpt>
      <trkpt lat="50.5371" lon="1.59022">
        <ele>7</ele>
        <time>2021-08-09T19:20:07.640Z</time>
      </trkpt>
      <trkpt lat="50.53705" lon="1.59024">
        <ele>6</ele>
        <time>2021-08-09T19:20:11.656Z</time>
      </trkpt>
      <trkpt lat="50.53699" lon="1.59026">
        <ele>6</ele>
        <time>2021-08-09T19:20:15.648Z</time>
      </trkpt>
      <trkpt lat="50.53693" lon="1.59027">
        <ele>6</ele>
        <time>2021-08-09T19:20:20.673Z</time>
      </trkpt>
      <trkpt lat="50.53687" lon="1.59026">
        <ele>6</ele>
        <time>2021-08-09T19:20:25.650Z</time>
      </trkpt>
      <trkpt lat="50.5368" lon="1.59024">
        <ele>6</ele>
        <time>2021-08-09T19:20:30.647Z</time>
      </trkpt>
      <trkpt lat="50.53674" lon="1.59022">
        <ele>6</ele>
        <time>2021-08-09T19:20:34.647Z</time>
      </trkpt>
      <trkpt lat="50.53668" lon="1.59021">
        <ele>6</ele>
        <time>2021-08-09T19:20:39.652Z</time>
      </trkpt>
      <trkpt lat="50.53661" lon="1.59019">
        <ele>6</ele>
        <time>2021-08-09T19:20:44.649Z</time>
      </trkpt>
      <trkpt lat="50.53655" lon="1.59018">
        <ele>6</ele>
        <time>2021-08-09T19:20:48.655Z</time>
      </trkpt>
      <trkpt lat="50.5365" lon="1.59018">
        <ele>5</ele>
        <time>2021-08-09T19:20:52.649Z</time>
      </trkpt>
      <trkpt lat="50.53643" lon="1.59017">
        <ele>5</ele>
        <time>2021-08-09T19:20:57.641Z</time>
      </trkpt>
      <trkpt lat="50.53637" lon="1.59018">
        <ele>5</ele>
        <time>2021-08-09T19:21:02.648Z</time>
      </trkpt>
      <trkpt lat="50.5363" lon="1.59018">
        <ele>5</ele>
        <time>2021-08-09T19:21:07.645Z</time>
      </trkpt>
      <trkpt lat="50.53624" lon="1.5902">
        <ele>5</ele>
        <time>2021-08-09T19:21:12.652Z</time>
      </trkpt>
      <trkpt lat="50.53619" lon="1.5902">
        <ele>5</ele>
        <time>2021-08-09T19:21:16.652Z</time>
      </trkpt>
      <trkpt lat="50.53612" lon="1.59018">
        <ele>5</ele>
        <time>2021-08-09T19:21:21.650Z</time>
      </trkpt>
      <trkpt lat="50.53607" lon="1.59018">
        <ele>5</ele>
        <time>2021-08-09T19:21:25.651Z</time>
      </trkpt>
      <trkpt lat="50.53601" lon="1.59018">
        <ele>5</ele>
        <time>2021-08-09T19:21:30.655Z</time>
      </trkpt>
      <trkpt lat="50.53595" lon="1.59019">
        <ele>5</ele>
        <time>2021-08-09T19:21:34.648Z</time>
      </trkpt>
      <trkpt lat="50.53588" lon="1.59019">
        <ele>5</ele>
        <time>2021-08-09T19:21:39.638Z</time>
      </trkpt>
      <trkpt lat="50.53581" lon="1.59019">
        <ele>5</ele>
        <time>2021-08-09T19:21:44.656Z</time>
      </trkpt>
      <trkpt lat="50.53575" lon="1.59019">
        <ele>5</ele>
        <time>2021-08-09T19:21:49.653Z</time>
      </trkpt>
      <trkpt lat="50.53568" lon="1.59018">
        <ele>6</ele>
        <time>2021-08-09T19:21:54.685Z</time>
      </trkpt>
      <trkpt lat="50.53561" lon="1.59017">
        <ele>6</ele>
        <time>2021-08-09T19:21:59.649Z</time>
      </trkpt>
      <trkpt lat="50.53557" lon="1.59015">
        <ele>6</ele>
        <time>2021-08-09T19:22:03.646Z</time>
      </trkpt>
      <trkpt lat="50.53552" lon="1.59009">
        <ele>6</ele>
        <time>2021-08-09T19:22:08.651Z</time>
      </trkpt>
      <trkpt lat="50.5355" lon="1.59006">
        <ele>6</ele>
        <time>2021-08-09T19:22:12.649Z</time>
      </trkpt>
      <trkpt lat="50.53545" lon="1.59002">
        <ele>6</ele>
        <time>2021-08-09T19:22:17.656Z</time>
      </trkpt>
      <trkpt lat="50.53539" lon="1.58999">
        <ele>8</ele>
        <time>2021-08-09T19:22:21.653Z</time>
      </trkpt>
      <trkpt lat="50.53534" lon="1.58997">
        <ele>8</ele>
        <time>2021-08-09T19:22:26.654Z</time>
      </trkpt>
      <trkpt lat="50.53527" lon="1.58994">
        <ele>8</ele>
        <time>2021-08-09T19:22:31.655Z</time>
      </trkpt>
      <trkpt lat="50.53521" lon="1.5899">
        <ele>8</ele>
        <time>2021-08-09T19:22:36.651Z</time>
      </trkpt>
      <trkpt lat="50.53516" lon="1.58988">
        <ele>8</ele>
        <time>2021-08-09T19:22:40.661Z</time>
      </trkpt>
      <trkpt lat="50.53511" lon="1.58986">
        <ele>10</ele>
        <time>2021-08-09T19:22:45.643Z</time>
      </trkpt>
      <trkpt lat="50.53506" lon="1.58982">
        <ele>10</ele>
        <time>2021-08-09T19:22:49.648Z</time>
      </trkpt>
      <trkpt lat="50.53501" lon="1.58976">
        <ele>10</ele>
        <time>2021-08-09T19:22:54.644Z</time>
      </trkpt>
      <trkpt lat="50.53495" lon="1.58971">
        <ele>10</ele>
        <time>2021-08-09T19:22:59.648Z</time>
      </trkpt>
      <trkpt lat="50.53493" lon="1.58962">
        <ele>10</ele>
        <time>2021-08-09T19:23:04.649Z</time>
      </trkpt>
      <trkpt lat="50.5349" lon="1.58955">
        <ele>10</ele>
        <time>2021-08-09T19:23:09.651Z</time>
      </trkpt>
      <trkpt lat="50.53485" lon="1.58956">
        <ele>12</ele>
        <time>2021-08-09T19:23:14.651Z</time>
      </trkpt>
      <trkpt lat="50.53483" lon="1.58964">
        <ele>10</ele>
        <time>2021-08-09T19:23:18.652Z</time>
      </trkpt>
      <trkpt lat="50.53481" lon="1.58972">
        <ele>10</ele>
        <time>2021-08-09T19:23:23.657Z</time>
      </trkpt>
      <trkpt lat="50.53479" lon="1.58978">
        <ele>10</ele>
        <time>2021-08-09T19:23:28.648Z</time>
      </trkpt>
      <trkpt lat="50.53475" lon="1.58983">
        <ele>10</ele>
        <time>2021-08-09T19:23:33.642Z</time>
      </trkpt>
      <trkpt lat="50.53473" lon="1.58991">
        <ele>10</ele>
        <time>2021-08-09T19:23:38.640Z</time>
      </trkpt>
      <trkpt lat="50.53472" lon="1.58997">
        <ele>10</ele>
        <time>2021-08-09T19:23:42.648Z</time>
      </trkpt>
      <trkpt lat="50.5347" lon="1.59007">
        <ele>10</ele>
        <time>2021-08-09T19:23:47.643Z</time>
      </trkpt>
      <trkpt lat="50.53469" lon="1.59014">
        <ele>10</ele>
        <time>2021-08-09T19:23:51.644Z</time>
      </trkpt>
      <trkpt lat="50.53465" lon="1.5901">
        <ele>10</ele>
        <time>2021-08-09T19:23:55.640Z</time>
      </trkpt>
      <trkpt lat="50.53462" lon="1.59002">
        <ele>10</ele>
        <time>2021-08-09T19:24:00.650Z</time>
      </trkpt>
      <trkpt lat="50.53459" lon="1.58994">
        <ele>10</ele>
        <time>2021-08-09T19:24:05.640Z</time>
      </trkpt>
      <trkpt lat="50.53464" lon="1.58992">
        <ele>10</ele>
        <time>2021-08-09T19:24:09.645Z</time>
      </trkpt>
      <trkpt lat="50.53465" lon="1.58991">
        <ele>10</ele>
        <time>2021-08-09T19:24:13.681Z</time>
      </trkpt>
      <trkpt lat="50.53463" lon="1.58985">
        <ele>10</ele>
        <time>2021-08-09T19:24:18.647Z</time>
      </trkpt>
      <trkpt lat="50.53455" lon="1.58981">
        <ele>11</ele>
        <time>2021-08-09T19:24:23.646Z</time>
      </trkpt>
      <trkpt lat="50.53448" lon="1.58976">
        <ele>11</ele>
        <time>2021-08-09T19:24:28.657Z</time>
      </trkpt>
      <trkpt lat="50.53442" lon="1.58971">
        <ele>11</ele>
        <time>2021-08-09T19:24:33.680Z</time>
      </trkpt>
      <trkpt lat="50.53436" lon="1.58968">
        <ele>11</ele>
        <time>2021-08-09T19:24:38.653Z</time>
      </trkpt>
      <trkpt lat="50.5343" lon="1.5896">
        <ele>10</ele>
        <time>2021-08-09T19:24:43.654Z</time>
      </trkpt>
      <trkpt lat="50.53425" lon="1.58952">
        <ele>11</ele>
        <time>2021-08-09T19:24:48.643Z</time>
      </trkpt>
      <trkpt lat="50.53421" lon="1.58946">
        <ele>11</ele>
        <time>2021-08-09T19:24:52.651Z</time>
      </trkpt>
      <trkpt lat="50.53415" lon="1.58939">
        <ele>11</ele>
        <time>2021-08-09T19:24:57.647Z</time>
      </trkpt>
      <trkpt lat="50.5341" lon="1.58932">
        <ele>11</ele>
        <time>2021-08-09T19:25:02.691Z</time>
      </trkpt>
      <trkpt lat="50.53404" lon="1.58925">
        <ele>11</ele>
        <time>2021-08-09T19:25:07.653Z</time>
      </trkpt>
      <trkpt lat="50.534" lon="1.5892">
        <ele>10</ele>
        <time>2021-08-09T19:25:11.651Z</time>
      </trkpt>
      <trkpt lat="50.53393" lon="1.58914">
        <ele>10</ele>
        <time>2021-08-09T19:25:16.654Z</time>
      </trkpt>
      <trkpt lat="50.53387" lon="1.58907">
        <ele>10</ele>
        <time>2021-08-09T19:25:21.657Z</time>
      </trkpt>
      <trkpt lat="50.5338" lon="1.58903">
        <ele>10</ele>
        <time>2021-08-09T19:25:26.657Z</time>
      </trkpt>
      <trkpt lat="50.53376" lon="1.58897">
        <ele>10</ele>
        <time>2021-08-09T19:25:31.649Z</time>
      </trkpt>
      <trkpt lat="50.53371" lon="1.58891">
        <ele>10</ele>
        <time>2021-08-09T19:25:35.677Z</time>
      </trkpt>
      <trkpt lat="50.53365" lon="1.58883">
        <ele>10</ele>
        <time>2021-08-09T19:25:40.643Z</time>
      </trkpt>
      <trkpt lat="50.53359" lon="1.58877">
        <ele>10</ele>
        <time>2021-08-09T19:25:44.651Z</time>
      </trkpt>
      <trkpt lat="50.53354" lon="1.58873">
        <ele>11</ele>
        <time>2021-08-09T19:25:48.660Z</time>
      </trkpt>
      <trkpt lat="50.53349" lon="1.58866">
        <ele>11</ele>
        <time>2021-08-09T19:25:52.648Z</time>
      </trkpt>
      <trkpt lat="50.53343" lon="1.58859">
        <ele>10</ele>
        <time>2021-08-09T19:25:57.653Z</time>
      </trkpt>
      <trkpt lat="50.53337" lon="1.58852">
        <ele>10</ele>
        <time>2021-08-09T19:26:02.657Z</time>
      </trkpt>
      <trkpt lat="50.5333" lon="1.58846">
        <ele>11</ele>
        <time>2021-08-09T19:26:07.712Z</time>
      </trkpt>
      <trkpt lat="50.53325" lon="1.58839">
        <ele>11</ele>
        <time>2021-08-09T19:26:12.651Z</time>
      </trkpt>
      <trkpt lat="50.53319" lon="1.58832">
        <ele>10</ele>
        <time>2021-08-09T19:26:17.650Z</time>
      </trkpt>
      <trkpt lat="50.53315" lon="1.58826">
        <ele>10</ele>
        <time>2021-08-09T19:26:21.654Z</time>
      </trkpt>
      <trkpt lat="50.53309" lon="1.58818">
        <ele>10</ele>
        <time>2021-08-09T19:26:26.646Z</time>
      </trkpt>
      <trkpt lat="50.53304" lon="1.58813">
        <ele>10</ele>
        <time>2021-08-09T19:26:30.656Z</time>
      </trkpt>
      <trkpt lat="50.53297" lon="1.58806">
        <ele>10</ele>
        <time>2021-08-09T19:26:35.652Z</time>
      </trkpt>
      <trkpt lat="50.5329" lon="1.58798">
        <ele>10</ele>
        <time>2021-08-09T19:26:40.651Z</time>
      </trkpt>
      <trkpt lat="50.53285" lon="1.58793">
        <ele>10</ele>
        <time>2021-08-09T19:26:44.668Z</time>
      </trkpt>
      <trkpt lat="50.53278" lon="1.58786">
        <ele>10</ele>
        <time>2021-08-09T19:26:49.640Z</time>
      </trkpt>
      <trkpt lat="50.53272" lon="1.58781">
        <ele>10</ele>
        <time>2021-08-09T19:26:53.647Z</time>
      </trkpt>
      <trkpt lat="50.53266" lon="1.58775">
        <ele>10</ele>
        <time>2021-08-09T19:26:57.654Z</time>
      </trkpt>
      <trkpt lat="50.5326" lon="1.58768">
        <ele>10</ele>
        <time>2021-08-09T19:27:02.651Z</time>
      </trkpt>
      <trkpt lat="50.53253" lon="1.58761">
        <ele>10</ele>
        <time>2021-08-09T19:27:07.653Z</time>
      </trkpt>
      <trkpt lat="50.53248" lon="1.58754">
        <ele>10</ele>
        <time>2021-08-09T19:27:11.676Z</time>
      </trkpt>
      <trkpt lat="50.53242" lon="1.58746">
        <ele>10</ele>
        <time>2021-08-09T19:27:16.687Z</time>
      </trkpt>
      <trkpt lat="50.53236" lon="1.58738">
        <ele>11</ele>
        <time>2021-08-09T19:27:21.646Z</time>
      </trkpt>
      <trkpt lat="50.5323" lon="1.58734">
        <ele>10</ele>
        <time>2021-08-09T19:27:25.672Z</time>
      </trkpt>
      <trkpt lat="50.53225" lon="1.58728">
        <ele>10</ele>
        <time>2021-08-09T19:27:30.644Z</time>
      </trkpt>
      <trkpt lat="50.5322" lon="1.58722">
        <ele>10</ele>
        <time>2021-08-09T19:27:34.654Z</time>
      </trkpt>
      <trkpt lat="50.53214" lon="1.58716">
        <ele>10</ele>
        <time>2021-08-09T19:27:39.653Z</time>
      </trkpt>
      <trkpt lat="50.53209" lon="1.58711">
        <ele>10</ele>
        <time>2021-08-09T19:27:43.652Z</time>
      </trkpt>
      <trkpt lat="50.53203" lon="1.58704">
        <ele>12</ele>
        <time>2021-08-09T19:27:48.682Z</time>
      </trkpt>
      <trkpt lat="50.53196" lon="1.58699">
        <ele>12</ele>
        <time>2021-08-09T19:27:53.646Z</time>
      </trkpt>
      <trkpt lat="50.53191" lon="1.58692">
        <ele>12</ele>
        <time>2021-08-09T19:27:58.647Z</time>
      </trkpt>
      <trkpt lat="50.53185" lon="1.58684">
        <ele>12</ele>
        <time>2021-08-09T19:28:03.705Z</time>
      </trkpt>
      <trkpt lat="50.53179" lon="1.58676">
        <ele>12</ele>
        <time>2021-08-09T19:28:08.643Z</time>
      </trkpt>
      <trkpt lat="50.53172" lon="1.58668">
        <ele>12</ele>
        <time>2021-08-09T19:28:13.643Z</time>
      </trkpt>
      <trkpt lat="50.53168" lon="1.58663">
        <ele>12</ele>
        <time>2021-08-09T19:28:17.653Z</time>
      </trkpt>
      <trkpt lat="50.53162" lon="1.58657">
        <ele>12</ele>
        <time>2021-08-09T19:28:21.682Z</time>
      </trkpt>
      <trkpt lat="50.53156" lon="1.5865">
        <ele>11</ele>
        <time>2021-08-09T19:28:26.649Z</time>
      </trkpt>
      <trkpt lat="50.53151" lon="1.58645">
        <ele>11</ele>
        <time>2021-08-09T19:28:30.656Z</time>
      </trkpt>
      <trkpt lat="50.53145" lon="1.58638">
        <ele>11</ele>
        <time>2021-08-09T19:28:35.649Z</time>
      </trkpt>
      <trkpt lat="50.53139" lon="1.58632">
        <ele>11</ele>
        <time>2021-08-09T19:28:40.670Z</time>
      </trkpt>
      <trkpt lat="50.53133" lon="1.58626">
        <ele>11</ele>
        <time>2021-08-09T19:28:45.641Z</time>
      </trkpt>
      <trkpt lat="50.53127" lon="1.58621">
        <ele>9</ele>
        <time>2021-08-09T19:28:49.651Z</time>
      </trkpt>
      <trkpt lat="50.53121" lon="1.58614">
        <ele>11</ele>
        <time>2021-08-09T19:28:54.645Z</time>
      </trkpt>
      <trkpt lat="50.53116" lon="1.58608">
        <ele>11</ele>
        <time>2021-08-09T19:28:58.646Z</time>
      </trkpt>
      <trkpt lat="50.53111" lon="1.58602">
        <ele>11</ele>
        <time>2021-08-09T19:29:02.686Z</time>
      </trkpt>
      <trkpt lat="50.53106" lon="1.58595">
        <ele>11</ele>
        <time>2021-08-09T19:29:06.647Z</time>
      </trkpt>
      <trkpt lat="50.531" lon="1.5859">
        <ele>11</ele>
        <time>2021-08-09T19:29:11.650Z</time>
      </trkpt>
      <trkpt lat="50.53094" lon="1.58583">
        <ele>12</ele>
        <time>2021-08-09T19:29:16.656Z</time>
      </trkpt>
      <trkpt lat="50.53088" lon="1.58576">
        <ele>12</ele>
        <time>2021-08-09T19:29:21.650Z</time>
      </trkpt>
      <trkpt lat="50.53082" lon="1.58572">
        <ele>12</ele>
        <time>2021-08-09T19:29:25.655Z</time>
      </trkpt>
      <trkpt lat="50.53076" lon="1.58565">
        <ele>12</ele>
        <time>2021-08-09T19:29:30.649Z</time>
      </trkpt>
      <trkpt lat="50.53069" lon="1.58559">
        <ele>12</ele>
        <time>2021-08-09T19:29:35.638Z</time>
      </trkpt>
      <trkpt lat="50.53064" lon="1.58554">
        <ele>12</ele>
        <time>2021-08-09T19:29:39.651Z</time>
      </trkpt>
      <trkpt lat="50.53057" lon="1.58548">
        <ele>12</ele>
        <time>2021-08-09T19:29:44.649Z</time>
      </trkpt>
      <trkpt lat="50.53051" lon="1.5854">
        <ele>13</ele>
        <time>2021-08-09T19:29:49.647Z</time>
      </trkpt>
      <trkpt lat="50.53047" lon="1.58535">
        <ele>13</ele>
        <time>2021-08-09T19:29:53.655Z</time>
      </trkpt>
      <trkpt lat="50.53041" lon="1.58528">
        <ele>12</ele>
        <time>2021-08-09T19:29:58.648Z</time>
      </trkpt>
      <trkpt lat="50.53033" lon="1.58523">
        <ele>12</ele>
        <time>2021-08-09T19:30:03.653Z</time>
      </trkpt>
      <trkpt lat="50.53026" lon="1.58516">
        <ele>12</ele>
        <time>2021-08-09T19:30:08.648Z</time>
      </trkpt>
      <trkpt lat="50.53019" lon="1.58509">
        <ele>11</ele>
        <time>2021-08-09T19:30:13.647Z</time>
      </trkpt>
      <trkpt lat="50.53014" lon="1.58502">
        <ele>11</ele>
        <time>2021-08-09T19:30:17.660Z</time>
      </trkpt>
      <trkpt lat="50.53009" lon="1.58498">
        <ele>10</ele>
        <time>2021-08-09T19:30:21.651Z</time>
      </trkpt>
      <trkpt lat="50.53001" lon="1.58493">
        <ele>10</ele>
        <time>2021-08-09T19:30:26.670Z</time>
      </trkpt>
      <trkpt lat="50.52994" lon="1.58487">
        <ele>10</ele>
        <time>2021-08-09T19:30:31.652Z</time>
      </trkpt>
      <trkpt lat="50.52989" lon="1.58481">
        <ele>11</ele>
        <time>2021-08-09T19:30:35.653Z</time>
      </trkpt>
      <trkpt lat="50.52983" lon="1.58475">
        <ele>11</ele>
        <time>2021-08-09T19:30:40.657Z</time>
      </trkpt>
      <trkpt lat="50.52977" lon="1.58469">
        <ele>11</ele>
        <time>2021-08-09T19:30:45.656Z</time>
      </trkpt>
      <trkpt lat="50.52971" lon="1.58463">
        <ele>11</ele>
        <time>2021-08-09T19:30:50.654Z</time>
      </trkpt>
      <trkpt lat="50.52967" lon="1.58457">
        <ele>12</ele>
        <time>2021-08-09T19:30:54.656Z</time>
      </trkpt>
      <trkpt lat="50.52961" lon="1.58452">
        <ele>12</ele>
        <time>2021-08-09T19:30:59.653Z</time>
      </trkpt>
      <trkpt lat="50.52954" lon="1.58445">
        <ele>13</ele>
        <time>2021-08-09T19:31:04.654Z</time>
      </trkpt>
      <trkpt lat="50.52947" lon="1.5844">
        <ele>13</ele>
        <time>2021-08-09T19:31:09.648Z</time>
      </trkpt>
      <trkpt lat="50.52942" lon="1.58435">
        <ele>13</ele>
        <time>2021-08-09T19:31:13.649Z</time>
      </trkpt>
      <trkpt lat="50.52937" lon="1.58428">
        <ele>12</ele>
        <time>2021-08-09T19:31:18.645Z</time>
      </trkpt>
      <trkpt lat="50.52932" lon="1.58423">
        <ele>12</ele>
        <time>2021-08-09T19:31:22.654Z</time>
      </trkpt>
      <trkpt lat="50.52928" lon="1.58417">
        <ele>12</ele>
        <time>2021-08-09T19:31:26.822Z</time>
      </trkpt>
      <trkpt lat="50.52922" lon="1.5841">
        <ele>12</ele>
        <time>2021-08-09T19:31:31.639Z</time>
      </trkpt>
      <trkpt lat="50.52916" lon="1.58403">
        <ele>12</ele>
        <time>2021-08-09T19:31:36.673Z</time>
      </trkpt>
      <trkpt lat="50.52909" lon="1.58395">
        <ele>11</ele>
        <time>2021-08-09T19:31:41.653Z</time>
      </trkpt>
      <trkpt lat="50.52903" lon="1.58387">
        <ele>11</ele>
        <time>2021-08-09T19:31:46.644Z</time>
      </trkpt>
      <trkpt lat="50.52896" lon="1.58381">
        <ele>10</ele>
        <time>2021-08-09T19:31:51.651Z</time>
      </trkpt>
      <trkpt lat="50.52891" lon="1.58375">
        <ele>10</ele>
        <time>2021-08-09T19:31:55.647Z</time>
      </trkpt>
      <trkpt lat="50.52884" lon="1.58369">
        <ele>11</ele>
        <time>2021-08-09T19:32:00.642Z</time>
      </trkpt>
      <trkpt lat="50.52879" lon="1.58365">
        <ele>11</ele>
        <time>2021-08-09T19:32:04.648Z</time>
      </trkpt>
      <trkpt lat="50.52874" lon="1.5836">
        <ele>10</ele>
        <time>2021-08-09T19:32:08.652Z</time>
      </trkpt>
      <trkpt lat="50.52867" lon="1.58354">
        <ele>10</ele>
        <time>2021-08-09T19:32:13.651Z</time>
      </trkpt>
      <trkpt lat="50.5286" lon="1.58349">
        <ele>10</ele>
        <time>2021-08-09T19:32:18.646Z</time>
      </trkpt>
      <trkpt lat="50.52854" lon="1.58342">
        <ele>9</ele>
        <time>2021-08-09T19:32:23.639Z</time>
      </trkpt>
      <trkpt lat="50.52848" lon="1.58336">
        <ele>9</ele>
        <time>2021-08-09T19:32:28.637Z</time>
      </trkpt>
      <trkpt lat="50.52843" lon="1.58331">
        <ele>9</ele>
        <time>2021-08-09T19:32:32.641Z</time>
      </trkpt>
      <trkpt lat="50.52839" lon="1.58326">
        <ele>9</ele>
        <time>2021-08-09T19:32:36.654Z</time>
      </trkpt>
      <trkpt lat="50.52833" lon="1.58321">
        <ele>9</ele>
        <time>2021-08-09T19:32:41.643Z</time>
      </trkpt>
      <trkpt lat="50.52827" lon="1.58316">
        <ele>8</ele>
        <time>2021-08-09T19:32:45.642Z</time>
      </trkpt>
      <trkpt lat="50.52823" lon="1.5831">
        <ele>8</ele>
        <time>2021-08-09T19:32:49.651Z</time>
      </trkpt>
      <trkpt lat="50.52816" lon="1.58304">
        <ele>8</ele>
        <time>2021-08-09T19:32:54.667Z</time>
      </trkpt>
      <trkpt lat="50.5281" lon="1.58296">
        <ele>8</ele>
        <time>2021-08-09T19:32:59.654Z</time>
      </trkpt>
      <trkpt lat="50.52804" lon="1.5829">
        <ele>8</ele>
        <time>2021-08-09T19:33:04.650Z</time>
      </trkpt>
      <trkpt lat="50.52798" lon="1.58283">
        <ele>8</ele>
        <time>2021-08-09T19:33:09.650Z</time>
      </trkpt>
      <trkpt lat="50.52792" lon="1.58277">
        <ele>8</ele>
        <time>2021-08-09T19:33:14.646Z</time>
      </trkpt>
      <trkpt lat="50.52785" lon="1.58272">
        <ele>8</ele>
        <time>2021-08-09T19:33:19.651Z</time>
      </trkpt>
      <trkpt lat="50.52779" lon="1.58266">
        <ele>8</ele>
        <time>2021-08-09T19:33:24.647Z</time>
      </trkpt>
      <trkpt lat="50.52773" lon="1.5826">
        <ele>7</ele>
        <time>2021-08-09T19:33:29.649Z</time>
      </trkpt>
      <trkpt lat="50.52767" lon="1.58254">
        <ele>7</ele>
        <time>2021-08-09T19:33:34.641Z</time>
      </trkpt>
      <trkpt lat="50.52761" lon="1.58247">
        <ele>7</ele>
        <time>2021-08-09T19:33:39.660Z</time>
      </trkpt>
      <trkpt lat="50.52754" lon="1.58241">
        <ele>7</ele>
        <time>2021-08-09T19:33:44.651Z</time>
      </trkpt>
      <trkpt lat="50.52753" lon="1.58231">
        <ele>7</ele>
        <time>2021-08-09T19:34:07.644Z</time>
      </trkpt>
      <trkpt lat="50.52752" lon="1.58241">
        <ele>7</ele>
        <time>2021-08-09T19:34:11.644Z</time>
      </trkpt>
      <trkpt lat="50.52744" lon="1.58232">
        <ele>7</ele>
        <time>2021-08-09T19:34:16.644Z</time>
      </trkpt>
      <trkpt lat="50.52737" lon="1.58227">
        <ele>7</ele>
        <time>2021-08-09T19:34:21.641Z</time>
      </trkpt>
      <trkpt lat="50.52732" lon="1.58223">
        <ele>6</ele>
        <time>2021-08-09T19:34:25.642Z</time>
      </trkpt>
      <trkpt lat="50.52726" lon="1.58219">
        <ele>6</ele>
        <time>2021-08-09T19:34:29.640Z</time>
      </trkpt>
      <trkpt lat="50.52718" lon="1.58215">
        <ele>6</ele>
        <time>2021-08-09T19:34:34.655Z</time>
      </trkpt>
      <trkpt lat="50.52712" lon="1.58211">
        <ele>6</ele>
        <time>2021-08-09T19:34:38.652Z</time>
      </trkpt>
      <trkpt lat="50.52707" lon="1.58209">
        <ele>6</ele>
        <time>2021-08-09T19:34:42.672Z</time>
      </trkpt>
      <trkpt lat="50.52699" lon="1.58206">
        <ele>5</ele>
        <time>2021-08-09T19:34:47.660Z</time>
      </trkpt>
      <trkpt lat="50.52693" lon="1.58201">
        <ele>5</ele>
        <time>2021-08-09T19:34:52.637Z</time>
      </trkpt>
      <trkpt lat="50.52686" lon="1.58197">
        <ele>5</ele>
        <time>2021-08-09T19:34:57.654Z</time>
      </trkpt>
      <trkpt lat="50.52681" lon="1.58194">
        <ele>5</ele>
        <time>2021-08-09T19:35:01.658Z</time>
      </trkpt>
      <trkpt lat="50.52674" lon="1.58189">
        <ele>5</ele>
        <time>2021-08-09T19:35:06.659Z</time>
      </trkpt>
      <trkpt lat="50.52668" lon="1.58185">
        <ele>5</ele>
        <time>2021-08-09T19:35:11.649Z</time>
      </trkpt>
      <trkpt lat="50.52661" lon="1.58181">
        <ele>5</ele>
        <time>2021-08-09T19:35:16.657Z</time>
      </trkpt>
      <trkpt lat="50.52655" lon="1.58178">
        <ele>5</ele>
        <time>2021-08-09T19:35:21.650Z</time>
      </trkpt>
      <trkpt lat="50.52647" lon="1.58175">
        <ele>6</ele>
        <time>2021-08-09T19:35:26.645Z</time>
      </trkpt>
      <trkpt lat="50.52641" lon="1.58171">
        <ele>6</ele>
        <time>2021-08-09T19:35:31.658Z</time>
      </trkpt>
      <trkpt lat="50.52635" lon="1.58167">
        <ele>6</ele>
        <time>2021-08-09T19:35:35.660Z</time>
      </trkpt>
      <trkpt lat="50.52628" lon="1.58163">
        <ele>6</ele>
        <time>2021-08-09T19:35:40.662Z</time>
      </trkpt>
      <trkpt lat="50.5262" lon="1.58158">
        <ele>7</ele>
        <time>2021-08-09T19:35:45.661Z</time>
      </trkpt>
      <trkpt lat="50.52613" lon="1.58154">
        <ele>7</ele>
        <time>2021-08-09T19:35:50.657Z</time>
      </trkpt>
      <trkpt lat="50.52615" lon="1.58143">
        <ele>7</ele>
        <time>2021-08-09T19:35:55.663Z</time>
      </trkpt>
      <trkpt lat="50.52621" lon="1.58136">
        <ele>7</ele>
        <time>2021-08-09T19:36:00.657Z</time>
      </trkpt>
      <trkpt lat="50.52637" lon="1.58147">
        <ele>6</ele>
        <time>2021-08-09T19:36:33.648Z</time>
      </trkpt>
      <trkpt lat="50.52637" lon="1.58147">
        <ele>6</ele>
        <time>2021-08-09T19:36:37.649Z</time>
      </trkpt>
      <trkpt lat="50.52637" lon="1.58147">
        <ele>6</ele>
        <time>2021-08-09T19:36:42.652Z</time>
      </trkpt>
      <trkpt lat="50.52637" lon="1.58147">
        <ele>6</ele>
        <time>2021-08-09T19:36:47.657Z</time>
      </trkpt>
      <trkpt lat="50.52637" lon="1.58147">
        <ele>6</ele>
        <time>2021-08-09T19:36:52.646Z</time>
      </trkpt>
      <trkpt lat="50.52637" lon="1.58148">
        <ele>6</ele>
        <time>2021-08-09T19:37:47.639Z</time>
      </trkpt>
      <trkpt lat="50.52636" lon="1.58148">
        <ele>6</ele>
        <time>2021-08-09T19:37:51.649Z</time>
      </trkpt>
      <trkpt lat="50.52637" lon="1.5814">
        <ele>6</ele>
        <time>2021-08-09T19:37:56.642Z</time>
      </trkpt>
      <trkpt lat="50.52632" lon="1.58137">
        <ele>6</ele>
        <time>2021-08-09T19:38:00.647Z</time>
      </trkpt>
      <trkpt lat="50.52626" lon="1.58137">
        <ele>6</ele>
        <time>2021-08-09T19:38:05.651Z</time>
      </trkpt>
      <trkpt lat="50.52621" lon="1.58133">
        <ele>7</ele>
        <time>2021-08-09T19:38:10.660Z</time>
      </trkpt>
      <trkpt lat="50.52624" lon="1.58122">
        <ele>6</ele>
        <time>2021-08-09T19:38:15.634Z</time>
      </trkpt>
      <trkpt lat="50.52624" lon="1.58112">
        <ele>6</ele>
        <time>2021-08-09T19:38:19.649Z</time>
      </trkpt>
      <trkpt lat="50.52618" lon="1.58112">
        <ele>6</ele>
        <time>2021-08-09T19:38:23.653Z</time>
      </trkpt>
      <trkpt lat="50.52614" lon="1.58122">
        <ele>6</ele>
        <time>2021-08-09T19:38:28.645Z</time>
      </trkpt>
      <trkpt lat="50.5261" lon="1.58127">
        <ele>7</ele>
        <time>2021-08-09T19:38:32.650Z</time>
      </trkpt>
      <trkpt lat="50.52606" lon="1.58133">
        <ele>7</ele>
        <time>2021-08-09T19:38:36.664Z</time>
      </trkpt>
      <trkpt lat="50.526" lon="1.5814">
        <ele>7</ele>
        <time>2021-08-09T19:38:41.639Z</time>
      </trkpt>
      <trkpt lat="50.52596" lon="1.58148">
        <ele>7</ele>
        <time>2021-08-09T19:38:45.650Z</time>
      </trkpt>
      <trkpt lat="50.5259" lon="1.58148">
        <ele>7</ele>
        <time>2021-08-09T19:38:50.650Z</time>
      </trkpt>
      <trkpt lat="50.52585" lon="1.58147">
        <ele>7</ele>
        <time>2021-08-09T19:38:54.658Z</time>
      </trkpt>
      <trkpt lat="50.52578" lon="1.58144">
        <ele>7</ele>
        <time>2021-08-09T19:38:59.649Z</time>
      </trkpt>
      <trkpt lat="50.52573" lon="1.5814">
        <ele>7</ele>
        <time>2021-08-09T19:39:04.661Z</time>
      </trkpt>
      <trkpt lat="50.52566" lon="1.58136">
        <ele>8</ele>
        <time>2021-08-09T19:39:09.644Z</time>
      </trkpt>
      <trkpt lat="50.5256" lon="1.58134">
        <ele>8</ele>
        <time>2021-08-09T19:39:14.644Z</time>
      </trkpt>
      <trkpt lat="50.52555" lon="1.58131">
        <ele>8</ele>
        <time>2021-08-09T19:39:18.642Z</time>
      </trkpt>
      <trkpt lat="50.52548" lon="1.58127">
        <ele>8</ele>
        <time>2021-08-09T19:39:23.648Z</time>
      </trkpt>
      <trkpt lat="50.52541" lon="1.58122">
        <ele>6</ele>
        <time>2021-08-09T19:39:28.639Z</time>
      </trkpt>
      <trkpt lat="50.52535" lon="1.58118">
        <ele>6</ele>
        <time>2021-08-09T19:39:33.654Z</time>
      </trkpt>
      <trkpt lat="50.52529" lon="1.58116">
        <ele>6</ele>
        <time>2021-08-09T19:39:37.664Z</time>
      </trkpt>
      <trkpt lat="50.52523" lon="1.58112">
        <ele>6</ele>
        <time>2021-08-09T19:39:42.639Z</time>
      </trkpt>
      <trkpt lat="50.52519" lon="1.58109">
        <ele>6</ele>
        <time>2021-08-09T19:39:46.650Z</time>
      </trkpt>
      <trkpt lat="50.52512" lon="1.58108">
        <ele>7</ele>
        <time>2021-08-09T19:39:51.646Z</time>
      </trkpt>
      <trkpt lat="50.52505" lon="1.58106">
        <ele>7</ele>
        <time>2021-08-09T19:39:56.650Z</time>
      </trkpt>
      <trkpt lat="50.52498" lon="1.58103">
        <ele>7</ele>
        <time>2021-08-09T19:40:01.661Z</time>
      </trkpt>
      <trkpt lat="50.52491" lon="1.581">
        <ele>7</ele>
        <time>2021-08-09T19:40:06.641Z</time>
      </trkpt>
      <trkpt lat="50.52485" lon="1.58097">
        <ele>7</ele>
        <time>2021-08-09T19:40:11.634Z</time>
      </trkpt>
      <trkpt lat="50.52478" lon="1.58094">
        <ele>6</ele>
        <time>2021-08-09T19:40:16.660Z</time>
      </trkpt>
      <trkpt lat="50.52472" lon="1.58092">
        <ele>6</ele>
        <time>2021-08-09T19:40:20.657Z</time>
      </trkpt>
      <trkpt lat="50.52465" lon="1.58098">
        <ele>7</ele>
        <time>2021-08-09T19:40:25.651Z</time>
      </trkpt>
      <trkpt lat="50.5246" lon="1.58087">
        <ele>6</ele>
        <time>2021-08-09T19:40:29.651Z</time>
      </trkpt>
      <trkpt lat="50.52454" lon="1.58084">
        <ele>6</ele>
        <time>2021-08-09T19:40:33.653Z</time>
      </trkpt>
      <trkpt lat="50.52447" lon="1.58081">
        <ele>6</ele>
        <time>2021-08-09T19:40:38.655Z</time>
      </trkpt>
      <trkpt lat="50.5244" lon="1.58079">
        <ele>6</ele>
        <time>2021-08-09T19:40:43.657Z</time>
      </trkpt>
      <trkpt lat="50.52434" lon="1.58077">
        <ele>6</ele>
        <time>2021-08-09T19:40:48.650Z</time>
      </trkpt>
      <trkpt lat="50.52428" lon="1.58077">
        <ele>7</ele>
        <time>2021-08-09T19:40:52.645Z</time>
      </trkpt>
      <trkpt lat="50.52421" lon="1.58075">
        <ele>7</ele>
        <time>2021-08-09T19:40:57.649Z</time>
      </trkpt>
      <trkpt lat="50.52414" lon="1.58071">
        <ele>7</ele>
        <time>2021-08-09T19:41:02.641Z</time>
      </trkpt>
      <trkpt lat="50.52407" lon="1.58067">
        <ele>6</ele>
        <time>2021-08-09T19:41:07.642Z</time>
      </trkpt>
      <trkpt lat="50.52402" lon="1.58064">
        <ele>6</ele>
        <time>2021-08-09T19:41:11.647Z</time>
      </trkpt>
      <trkpt lat="50.52397" lon="1.58061">
        <ele>6</ele>
        <time>2021-08-09T19:41:15.661Z</time>
      </trkpt>
      <trkpt lat="50.52389" lon="1.58059">
        <ele>6</ele>
        <time>2021-08-09T19:41:20.653Z</time>
      </trkpt>
      <trkpt lat="50.52384" lon="1.58056">
        <ele>6</ele>
        <time>2021-08-09T19:41:24.652Z</time>
      </trkpt>
      <trkpt lat="50.52377" lon="1.58053">
        <ele>6</ele>
        <time>2021-08-09T19:41:29.654Z</time>
      </trkpt>
      <trkpt lat="50.52371" lon="1.58051">
        <ele>9</ele>
        <time>2021-08-09T19:41:33.664Z</time>
      </trkpt>
      <trkpt lat="50.52364" lon="1.58048">
        <ele>9</ele>
        <time>2021-08-09T19:41:38.650Z</time>
      </trkpt>
      <trkpt lat="50.52358" lon="1.58046">
        <ele>9</ele>
        <time>2021-08-09T19:41:42.653Z</time>
      </trkpt>
      <trkpt lat="50.52353" lon="1.58044">
        <ele>9</ele>
        <time>2021-08-09T19:41:46.659Z</time>
      </trkpt>
      <trkpt lat="50.52345" lon="1.58043">
        <ele>8</ele>
        <time>2021-08-09T19:41:51.661Z</time>
      </trkpt>
      <trkpt lat="50.52339" lon="1.5804">
        <ele>7</ele>
        <time>2021-08-09T19:41:56.671Z</time>
      </trkpt>
      <trkpt lat="50.52332" lon="1.58038">
        <ele>7</ele>
        <time>2021-08-09T19:42:01.650Z</time>
      </trkpt>
      <trkpt lat="50.52326" lon="1.58036">
        <ele>7</ele>
        <time>2021-08-09T19:42:05.651Z</time>
      </trkpt>
      <trkpt lat="50.52321" lon="1.58034">
        <ele>7</ele>
        <time>2021-08-09T19:42:09.653Z</time>
      </trkpt>
      <trkpt lat="50.52313" lon="1.58032">
        <ele>8</ele>
        <time>2021-08-09T19:42:14.642Z</time>
      </trkpt>
      <trkpt lat="50.52308" lon="1.58029">
        <ele>8</ele>
        <time>2021-08-09T19:42:18.649Z</time>
      </trkpt>
      <trkpt lat="50.52301" lon="1.58026">
        <ele>8</ele>
        <time>2021-08-09T19:42:23.654Z</time>
      </trkpt>
      <trkpt lat="50.52294" lon="1.58025">
        <ele>8</ele>
        <time>2021-08-09T19:42:28.647Z</time>
      </trkpt>
      <trkpt lat="50.52288" lon="1.58024">
        <ele>9</ele>
        <time>2021-08-09T19:42:32.653Z</time>
      </trkpt>
      <trkpt lat="50.52283" lon="1.58022">
        <ele>9</ele>
        <time>2021-08-09T19:42:36.660Z</time>
      </trkpt>
      <trkpt lat="50.52275" lon="1.58019">
        <ele>9</ele>
        <time>2021-08-09T19:42:41.662Z</time>
      </trkpt>
      <trkpt lat="50.52268" lon="1.58016">
        <ele>9</ele>
        <time>2021-08-09T19:42:46.648Z</time>
      </trkpt>
      <trkpt lat="50.52262" lon="1.58014">
        <ele>9</ele>
        <time>2021-08-09T19:42:50.760Z</time>
      </trkpt>
      <trkpt lat="50.52255" lon="1.58012">
        <ele>8</ele>
        <time>2021-08-09T19:42:55.644Z</time>
      </trkpt>
      <trkpt lat="50.52249" lon="1.5801">
        <ele>8</ele>
        <time>2021-08-09T19:42:59.663Z</time>
      </trkpt>
      <trkpt lat="50.52242" lon="1.58008">
        <ele>8</ele>
        <time>2021-08-09T19:43:04.652Z</time>
      </trkpt>
      <trkpt lat="50.52236" lon="1.58006">
        <ele>9</ele>
        <time>2021-08-09T19:43:08.651Z</time>
      </trkpt>
      <trkpt lat="50.52229" lon="1.58004">
        <ele>9</ele>
        <time>2021-08-09T19:43:13.642Z</time>
      </trkpt>
      <trkpt lat="50.52222" lon="1.58">
        <ele>9</ele>
        <time>2021-08-09T19:43:18.659Z</time>
      </trkpt>
      <trkpt lat="50.52215" lon="1.57998">
        <ele>9</ele>
        <time>2021-08-09T19:43:23.646Z</time>
      </trkpt>
      <trkpt lat="50.52209" lon="1.57996">
        <ele>9</ele>
        <time>2021-08-09T19:43:27.654Z</time>
      </trkpt>
      <trkpt lat="50.52202" lon="1.57994">
        <ele>9</ele>
        <time>2021-08-09T19:43:32.649Z</time>
      </trkpt>
      <trkpt lat="50.52196" lon="1.57993">
        <ele>9</ele>
        <time>2021-08-09T19:43:36.652Z</time>
      </trkpt>
      <trkpt lat="50.52189" lon="1.57991">
        <ele>9</ele>
        <time>2021-08-09T19:43:41.647Z</time>
      </trkpt>
      <trkpt lat="50.52184" lon="1.57989">
        <ele>9</ele>
        <time>2021-08-09T19:43:45.654Z</time>
      </trkpt>
      <trkpt lat="50.52177" lon="1.57988">
        <ele>8</ele>
        <time>2021-08-09T19:43:50.646Z</time>
      </trkpt>
      <trkpt lat="50.52171" lon="1.57987">
        <ele>8</ele>
        <time>2021-08-09T19:43:54.649Z</time>
      </trkpt>
      <trkpt lat="50.52166" lon="1.57984">
        <ele>8</ele>
        <time>2021-08-09T19:43:58.663Z</time>
      </trkpt>
      <trkpt lat="50.52158" lon="1.57981">
        <ele>8</ele>
        <time>2021-08-09T19:44:03.651Z</time>
      </trkpt>
      <trkpt lat="50.52152" lon="1.57979">
        <ele>8</ele>
        <time>2021-08-09T19:44:07.648Z</time>
      </trkpt>
      <trkpt lat="50.52146" lon="1.57977">
        <ele>8</ele>
        <time>2021-08-09T19:44:11.662Z</time>
      </trkpt>
      <trkpt lat="50.52139" lon="1.57975">
        <ele>8</ele>
        <time>2021-08-09T19:44:16.649Z</time>
      </trkpt>
      <trkpt lat="50.52132" lon="1.57974">
        <ele>8</ele>
        <time>2021-08-09T19:44:21.641Z</time>
      </trkpt>
      <trkpt lat="50.52125" lon="1.57972">
        <ele>8</ele>
        <time>2021-08-09T19:44:26.661Z</time>
      </trkpt>
      <trkpt lat="50.52117" lon="1.5797">
        <ele>8</ele>
        <time>2021-08-09T19:44:31.641Z</time>
      </trkpt>
      <trkpt lat="50.52111" lon="1.57969">
        <ele>8</ele>
        <time>2021-08-09T19:44:35.659Z</time>
      </trkpt>
      <trkpt lat="50.52104" lon="1.57967">
        <ele>8</ele>
        <time>2021-08-09T19:44:40.651Z</time>
      </trkpt>
      <trkpt lat="50.52098" lon="1.57966">
        <ele>8</ele>
        <time>2021-08-09T19:44:44.648Z</time>
      </trkpt>
      <trkpt lat="50.52091" lon="1.57965">
        <ele>8</ele>
        <time>2021-08-09T19:44:49.643Z</time>
      </trkpt>
      <trkpt lat="50.52085" lon="1.57963">
        <ele>8</ele>
        <time>2021-08-09T19:44:53.652Z</time>
      </trkpt>
      <trkpt lat="50.52077" lon="1.57962">
        <ele>8</ele>
        <time>2021-08-09T19:44:58.649Z</time>
      </trkpt>
      <trkpt lat="50.52069" lon="1.57959">
        <ele>9</ele>
        <time>2021-08-09T19:45:03.658Z</time>
      </trkpt>
      <trkpt lat="50.52061" lon="1.57958">
        <ele>6</ele>
        <time>2021-08-09T19:45:08.641Z</time>
      </trkpt>
      <trkpt lat="50.52055" lon="1.57956">
        <ele>6</ele>
        <time>2021-08-09T19:45:12.649Z</time>
      </trkpt>
      <trkpt lat="50.52047" lon="1.57955">
        <ele>6</ele>
        <time>2021-08-09T19:45:17.664Z</time>
      </trkpt>
      <trkpt lat="50.52039" lon="1.57953">
        <ele>7</ele>
        <time>2021-08-09T19:45:22.645Z</time>
      </trkpt>
      <trkpt lat="50.52033" lon="1.57951">
        <ele>7</ele>
        <time>2021-08-09T19:45:26.660Z</time>
      </trkpt>
      <trkpt lat="50.52025" lon="1.5795">
        <ele>7</ele>
        <time>2021-08-09T19:45:31.645Z</time>
      </trkpt>
      <trkpt lat="50.52019" lon="1.57948">
        <ele>7</ele>
        <time>2021-08-09T19:45:35.657Z</time>
      </trkpt>
      <trkpt lat="50.52011" lon="1.57947">
        <ele>9</ele>
        <time>2021-08-09T19:45:40.650Z</time>
      </trkpt>
      <trkpt lat="50.52004" lon="1.57945">
        <ele>9</ele>
        <time>2021-08-09T19:45:45.655Z</time>
      </trkpt>
      <trkpt lat="50.51998" lon="1.57943">
        <ele>9</ele>
        <time>2021-08-09T19:45:49.649Z</time>
      </trkpt>
      <trkpt lat="50.51991" lon="1.57942">
        <ele>9</ele>
        <time>2021-08-09T19:45:54.647Z</time>
      </trkpt>
      <trkpt lat="50.51984" lon="1.57941">
        <ele>9</ele>
        <time>2021-08-09T19:45:58.650Z</time>
      </trkpt>
      <trkpt lat="50.51979" lon="1.5794">
        <ele>9</ele>
        <time>2021-08-09T19:46:02.658Z</time>
      </trkpt>
      <trkpt lat="50.51973" lon="1.57938">
        <ele>9</ele>
        <time>2021-08-09T19:46:06.663Z</time>
      </trkpt>
      <trkpt lat="50.51965" lon="1.57936">
        <ele>9</ele>
        <time>2021-08-09T19:46:11.650Z</time>
      </trkpt>
      <trkpt lat="50.51958" lon="1.57935">
        <ele>10</ele>
        <time>2021-08-09T19:46:16.655Z</time>
      </trkpt>
      <trkpt lat="50.51952" lon="1.57934">
        <ele>10</ele>
        <time>2021-08-09T19:46:20.663Z</time>
      </trkpt>
      <trkpt lat="50.51946" lon="1.57932">
        <ele>10</ele>
        <time>2021-08-09T19:46:24.656Z</time>
      </trkpt>
      <trkpt lat="50.51938" lon="1.5793">
        <ele>7</ele>
        <time>2021-08-09T19:46:29.647Z</time>
      </trkpt>
      <trkpt lat="50.51932" lon="1.57929">
        <ele>7</ele>
        <time>2021-08-09T19:46:33.671Z</time>
      </trkpt>
      <trkpt lat="50.51925" lon="1.57928">
        <ele>8</ele>
        <time>2021-08-09T19:46:38.652Z</time>
      </trkpt>
      <trkpt lat="50.5192" lon="1.57927">
        <ele>8</ele>
        <time>2021-08-09T19:46:42.653Z</time>
      </trkpt>
      <trkpt lat="50.51914" lon="1.57926">
        <ele>8</ele>
        <time>2021-08-09T19:46:46.651Z</time>
      </trkpt>
      <trkpt lat="50.51906" lon="1.57924">
        <ele>8</ele>
        <time>2021-08-09T19:46:51.664Z</time>
      </trkpt>
      <trkpt lat="50.51899" lon="1.57923">
        <ele>9</ele>
        <time>2021-08-09T19:46:56.658Z</time>
      </trkpt>
      <trkpt lat="50.51892" lon="1.57922">
        <ele>9</ele>
        <time>2021-08-09T19:47:01.655Z</time>
      </trkpt>
      <trkpt lat="50.51885" lon="1.57921">
        <ele>9</ele>
        <time>2021-08-09T19:47:06.674Z</time>
      </trkpt>
      <trkpt lat="50.51877" lon="1.57921">
        <ele>9</ele>
        <time>2021-08-09T19:47:11.645Z</time>
      </trkpt>
      <trkpt lat="50.51871" lon="1.57921">
        <ele>10</ele>
        <time>2021-08-09T19:47:15.661Z</time>
      </trkpt>
      <trkpt lat="50.51864" lon="1.57919">
        <ele>10</ele>
        <time>2021-08-09T19:47:20.643Z</time>
      </trkpt>
      <trkpt lat="50.51856" lon="1.57918">
        <ele>10</ele>
        <time>2021-08-09T19:47:25.649Z</time>
      </trkpt>
      <trkpt lat="50.5185" lon="1.57917">
        <ele>10</ele>
        <time>2021-08-09T19:47:29.639Z</time>
      </trkpt>
      <trkpt lat="50.51842" lon="1.57916">
        <ele>11</ele>
        <time>2021-08-09T19:47:34.644Z</time>
      </trkpt>
      <trkpt lat="50.51836" lon="1.57915">
        <ele>11</ele>
        <time>2021-08-09T19:47:38.650Z</time>
      </trkpt>
      <trkpt lat="50.51828" lon="1.57914">
        <ele>11</ele>
        <time>2021-08-09T19:47:43.649Z</time>
      </trkpt>
      <trkpt lat="50.51822" lon="1.57912">
        <ele>11</ele>
        <time>2021-08-09T19:47:47.655Z</time>
      </trkpt>
      <trkpt lat="50.51814" lon="1.57912">
        <ele>11</ele>
        <time>2021-08-09T19:47:52.641Z</time>
      </trkpt>
      <trkpt lat="50.51808" lon="1.57912">
        <ele>11</ele>
        <time>2021-08-09T19:47:56.648Z</time>
      </trkpt>
      <trkpt lat="50.51801" lon="1.57911">
        <ele>11</ele>
        <time>2021-08-09T19:48:01.638Z</time>
      </trkpt>
      <trkpt lat="50.51795" lon="1.5791">
        <ele>11</ele>
        <time>2021-08-09T19:48:05.651Z</time>
      </trkpt>
      <trkpt lat="50.51788" lon="1.57909">
        <ele>10</ele>
        <time>2021-08-09T19:48:10.655Z</time>
      </trkpt>
      <trkpt lat="50.5178" lon="1.57908">
        <ele>10</ele>
        <time>2021-08-09T19:48:15.650Z</time>
      </trkpt>
      <trkpt lat="50.51775" lon="1.57907">
        <ele>10</ele>
        <time>2021-08-09T19:48:19.651Z</time>
      </trkpt>
      <trkpt lat="50.51769" lon="1.57906">
        <ele>10</ele>
        <time>2021-08-09T19:48:23.670Z</time>
      </trkpt>
      <trkpt lat="50.51762" lon="1.57906">
        <ele>9</ele>
        <time>2021-08-09T19:48:28.666Z</time>
      </trkpt>
      <trkpt lat="50.51754" lon="1.57906">
        <ele>9</ele>
        <time>2021-08-09T19:48:33.646Z</time>
      </trkpt>
      <trkpt lat="50.51748" lon="1.57904">
        <ele>9</ele>
        <time>2021-08-09T19:48:37.657Z</time>
      </trkpt>
      <trkpt lat="50.51742" lon="1.57903">
        <ele>8</ele>
        <time>2021-08-09T19:48:41.653Z</time>
      </trkpt>
      <trkpt lat="50.51735" lon="1.57902">
        <ele>6</ele>
        <time>2021-08-09T19:48:46.675Z</time>
      </trkpt>
      <trkpt lat="50.51727" lon="1.579">
        <ele>6</ele>
        <time>2021-08-09T19:48:51.652Z</time>
      </trkpt>
      <trkpt lat="50.51722" lon="1.57899">
        <ele>6</ele>
        <time>2021-08-09T19:48:55.661Z</time>
      </trkpt>
      <trkpt lat="50.51714" lon="1.57898">
        <ele>6</ele>
        <time>2021-08-09T19:49:00.657Z</time>
      </trkpt>
      <trkpt lat="50.51707" lon="1.57897">
        <ele>7</ele>
        <time>2021-08-09T19:49:05.641Z</time>
      </trkpt>
      <trkpt lat="50.51702" lon="1.57896">
        <ele>7</ele>
        <time>2021-08-09T19:49:09.647Z</time>
      </trkpt>
      <trkpt lat="50.51696" lon="1.57896">
        <ele>7</ele>
        <time>2021-08-09T19:49:13.650Z</time>
      </trkpt>
      <trkpt lat="50.5169" lon="1.57894">
        <ele>7</ele>
        <time>2021-08-09T19:49:17.649Z</time>
      </trkpt>
      <trkpt lat="50.51683" lon="1.57893">
        <ele>7</ele>
        <time>2021-08-09T19:49:22.656Z</time>
      </trkpt>
      <trkpt lat="50.51676" lon="1.57892">
        <ele>9</ele>
        <time>2021-08-09T19:49:27.652Z</time>
      </trkpt>
      <trkpt lat="50.51669" lon="1.57891">
        <ele>9</ele>
        <time>2021-08-09T19:49:32.661Z</time>
      </trkpt>
      <trkpt lat="50.51662" lon="1.5789">
        <ele>9</ele>
        <time>2021-08-09T19:49:37.654Z</time>
      </trkpt>
      <trkpt lat="50.51654" lon="1.5789">
        <ele>9</ele>
        <time>2021-08-09T19:49:42.649Z</time>
      </trkpt>
      <trkpt lat="50.51647" lon="1.57889">
        <ele>10</ele>
        <time>2021-08-09T19:49:47.651Z</time>
      </trkpt>
      <trkpt lat="50.51642" lon="1.57887">
        <ele>10</ele>
        <time>2021-08-09T19:49:51.655Z</time>
      </trkpt>
      <trkpt lat="50.51634" lon="1.57887">
        <ele>10</ele>
        <time>2021-08-09T19:49:56.647Z</time>
      </trkpt>
      <trkpt lat="50.51627" lon="1.57888">
        <ele>10</ele>
        <time>2021-08-09T19:50:01.657Z</time>
      </trkpt>
      <trkpt lat="50.51619" lon="1.57886">
        <ele>12</ele>
        <time>2021-08-09T19:50:06.652Z</time>
      </trkpt>
      <trkpt lat="50.51612" lon="1.57888">
        <ele>12</ele>
        <time>2021-08-09T19:50:11.648Z</time>
      </trkpt>
      <trkpt lat="50.51606" lon="1.57888">
        <ele>12</ele>
        <time>2021-08-09T19:50:15.642Z</time>
      </trkpt>
      <trkpt lat="50.51597" lon="1.5789">
        <ele>12</ele>
        <time>2021-08-09T19:50:20.647Z</time>
      </trkpt>
      <trkpt lat="50.51593" lon="1.57887">
        <ele>16</ele>
        <time>2021-08-09T19:50:24.651Z</time>
      </trkpt>
      <trkpt lat="50.51586" lon="1.57888">
        <ele>16</ele>
        <time>2021-08-09T19:50:29.636Z</time>
      </trkpt>
      <trkpt lat="50.51581" lon="1.57884">
        <ele>16</ele>
        <time>2021-08-09T19:50:33.639Z</time>
      </trkpt>
      <trkpt lat="50.51578" lon="1.57879">
        <ele>16</ele>
        <time>2021-08-09T19:50:37.646Z</time>
      </trkpt>
      <trkpt lat="50.51574" lon="1.57869">
        <ele>13</ele>
        <time>2021-08-09T19:50:42.643Z</time>
      </trkpt>
      <trkpt lat="50.51568" lon="1.57862">
        <ele>14</ele>
        <time>2021-08-09T19:50:47.640Z</time>
      </trkpt>
      <trkpt lat="50.51563" lon="1.57858">
        <ele>14</ele>
        <time>2021-08-09T19:50:51.640Z</time>
      </trkpt>
      <trkpt lat="50.51556" lon="1.57855">
        <ele>14</ele>
        <time>2021-08-09T19:50:56.648Z</time>
      </trkpt>
      <trkpt lat="50.5155" lon="1.57852">
        <ele>14</ele>
        <time>2021-08-09T19:51:00.646Z</time>
      </trkpt>
      <trkpt lat="50.51544" lon="1.5785">
        <ele>14</ele>
        <time>2021-08-09T19:51:04.653Z</time>
      </trkpt>
      <trkpt lat="50.51538" lon="1.5785">
        <ele>15</ele>
        <time>2021-08-09T19:51:08.665Z</time>
      </trkpt>
      <trkpt lat="50.51531" lon="1.57846">
        <ele>12</ele>
        <time>2021-08-09T19:51:13.649Z</time>
      </trkpt>
      <trkpt lat="50.51524" lon="1.57843">
        <ele>12</ele>
        <time>2021-08-09T19:51:18.660Z</time>
      </trkpt>
      <trkpt lat="50.51518" lon="1.57843">
        <ele>12</ele>
        <time>2021-08-09T19:51:22.663Z</time>
      </trkpt>
      <trkpt lat="50.51511" lon="1.57842">
        <ele>13</ele>
        <time>2021-08-09T19:51:27.662Z</time>
      </trkpt>
      <trkpt lat="50.51505" lon="1.57842">
        <ele>13</ele>
        <time>2021-08-09T19:51:31.657Z</time>
      </trkpt>
      <trkpt lat="50.51497" lon="1.57841">
        <ele>13</ele>
        <time>2021-08-09T19:51:36.644Z</time>
      </trkpt>
      <trkpt lat="50.5149" lon="1.57841">
        <ele>13</ele>
        <time>2021-08-09T19:51:41.638Z</time>
      </trkpt>
      <trkpt lat="50.51484" lon="1.5784">
        <ele>15</ele>
        <time>2021-08-09T19:51:45.640Z</time>
      </trkpt>
      <trkpt lat="50.51477" lon="1.57838">
        <ele>15</ele>
        <time>2021-08-09T19:51:50.641Z</time>
      </trkpt>
      <trkpt lat="50.51471" lon="1.57836">
        <ele>15</ele>
        <time>2021-08-09T19:51:54.652Z</time>
      </trkpt>
      <trkpt lat="50.51464" lon="1.57834">
        <ele>15</ele>
        <time>2021-08-09T19:51:59.651Z</time>
      </trkpt>
      <trkpt lat="50.51457" lon="1.57835">
        <ele>15</ele>
        <time>2021-08-09T19:52:04.659Z</time>
      </trkpt>
      <trkpt lat="50.5145" lon="1.57832">
        <ele>15</ele>
        <time>2021-08-09T19:52:09.650Z</time>
      </trkpt>
      <trkpt lat="50.51442" lon="1.57832">
        <ele>15</ele>
        <time>2021-08-09T19:52:14.655Z</time>
      </trkpt>
      <trkpt lat="50.51436" lon="1.57832">
        <ele>15</ele>
        <time>2021-08-09T19:52:18.661Z</time>
      </trkpt>
      <trkpt lat="50.51429" lon="1.57829">
        <ele>15</ele>
        <time>2021-08-09T19:52:23.656Z</time>
      </trkpt>
      <trkpt lat="50.51425" lon="1.5783">
        <ele>15</ele>
        <time>2021-08-09T19:52:28.644Z</time>
      </trkpt>
      <trkpt lat="50.51425" lon="1.57829">
        <ele>15</ele>
        <time>2021-08-09T19:52:33.644Z</time>
      </trkpt>
      <trkpt lat="50.5142" lon="1.57824">
        <ele>15</ele>
        <time>2021-08-09T19:52:38.640Z</time>
      </trkpt>
      <trkpt lat="50.51416" lon="1.57817">
        <ele>13</ele>
        <time>2021-08-09T19:52:42.645Z</time>
      </trkpt>
      <trkpt lat="50.51411" lon="1.57809">
        <ele>13</ele>
        <time>2021-08-09T19:52:47.641Z</time>
      </trkpt>
      <trkpt lat="50.51414" lon="1.57796">
        <ele>13</ele>
        <time>2021-08-09T19:54:56.633Z</time>
      </trkpt>
      <trkpt lat="50.51412" lon="1.57793">
        <ele>13</ele>
        <time>2021-08-09T19:55:00.640Z</time>
      </trkpt>
      <trkpt lat="50.51406" lon="1.57785">
        <ele>15</ele>
        <time>2021-08-09T19:55:05.646Z</time>
      </trkpt>
      <trkpt lat="50.51405" lon="1.5778">
        <ele>15</ele>
        <time>2021-08-09T19:55:10.642Z</time>
      </trkpt>
      <trkpt lat="50.51405" lon="1.57774">
        <ele>15</ele>
        <time>2021-08-09T19:55:49.636Z</time>
      </trkpt>
      <trkpt lat="50.51401" lon="1.5777">
        <ele>14</ele>
        <time>2021-08-09T19:55:53.637Z</time>
      </trkpt>
      <trkpt lat="50.51393" lon="1.57764">
        <ele>14</ele>
        <time>2021-08-09T19:55:57.651Z</time>
      </trkpt>
      <trkpt lat="50.51388" lon="1.5776">
        <ele>9</ele>
        <time>2021-08-09T19:56:02.644Z</time>
      </trkpt>
      <trkpt lat="50.51386" lon="1.5776">
        <ele>9</ele>
        <time>2021-08-09T19:56:06.640Z</time>
      </trkpt>
      <trkpt lat="50.51371" lon="1.57749">
        <ele>10</ele>
        <time>2021-08-09T19:56:21.665Z</time>
      </trkpt>
      <trkpt lat="50.51368" lon="1.57757">
        <ele>10</ele>
        <time>2021-08-09T19:56:26.642Z</time>
      </trkpt>
      <trkpt lat="50.51368" lon="1.57757">
        <ele>10</ele>
        <time>2021-08-09T19:56:30.649Z</time>
      </trkpt>
      <trkpt lat="50.51367" lon="1.57757">
        <ele>10</ele>
        <time>2021-08-09T19:56:34.650Z</time>
      </trkpt>
      <trkpt lat="50.51365" lon="1.57754">
        <ele>10</ele>
        <time>2021-08-09T19:56:38.651Z</time>
      </trkpt>
    </trkseg>
  </trk>
</gpx>